<?xml version="1.0" encoding="UTF-8" standalone="no" ?>
<gpx xmlns="http://www.topografix.com/GPX/1/1" xmlns:xsi="http://www.w3.org/2001/XMLSchema-instance" xsi:schemaLocation="http://www.topografix.com/GPX/1/1 http://www.topografix.com/GPX/1/1/gpx.xsd" version="1.1" creator="VisuGPX - https://www.visugpx.com">
  <metadata>
    <name>VTT sanguine david </name>
    <desc><![CDATA[VTT orientation ]]></desc>
  </metadata>
  <trk>
    <name><![CDATA[2015-10-31 14:57:06]]></name>
    <trkseg>
      <trkpt lat="44.48379" lon="-1.0854">
        <ele>12.69</ele>
        <time>2015-10-31T12:12:55Z</time>
      </trkpt>
      <trkpt lat="44.4839" lon="-1.08552">
        <ele>12.63</ele>
        <time>2015-10-31T12:12:58Z</time>
      </trkpt>
      <trkpt lat="44.48102" lon="-1.10207">
        <ele>9.97</ele>
        <time>2015-10-31T12:21:35Z</time>
      </trkpt>
      <trkpt lat="44.48099" lon="-1.10208">
        <ele>10.16</ele>
        <time>2015-10-31T12:22:05Z</time>
      </trkpt>
      <trkpt lat="44.48097" lon="-1.10229">
        <ele>10.32</ele>
        <time>2015-10-31T12:22:10Z</time>
      </trkpt>
      <trkpt lat="44.48102" lon="-1.10261">
        <ele>10.44</ele>
        <time>2015-10-31T12:22:14Z</time>
      </trkpt>
      <trkpt lat="44.48086" lon="-1.10301">
        <ele>10.9</ele>
        <time>2015-10-31T12:22:19Z</time>
      </trkpt>
      <trkpt lat="44.47983" lon="-1.1038">
        <ele>11.61</ele>
        <time>2015-10-31T12:22:33Z</time>
      </trkpt>
      <trkpt lat="44.4794" lon="-1.10413">
        <ele>12.36</ele>
        <time>2015-10-31T12:22:39Z</time>
      </trkpt>
      <trkpt lat="44.47874" lon="-1.10425">
        <ele>12.17</ele>
        <time>2015-10-31T12:22:47Z</time>
      </trkpt>
      <trkpt lat="44.47784" lon="-1.10435">
        <ele>12.68</ele>
        <time>2015-10-31T12:22:58Z</time>
      </trkpt>
      <trkpt lat="44.47673" lon="-1.10447">
        <ele>12.42</ele>
        <time>2015-10-31T12:23:12Z</time>
      </trkpt>
      <trkpt lat="44.47556" lon="-1.1046">
        <ele>12.89</ele>
        <time>2015-10-31T12:23:28Z</time>
      </trkpt>
      <trkpt lat="44.47479" lon="-1.10481">
        <ele>13.31</ele>
        <time>2015-10-31T12:23:39Z</time>
      </trkpt>
      <trkpt lat="44.47484" lon="-1.10496">
        <ele>12.65</ele>
        <time>2015-10-31T12:23:44Z</time>
      </trkpt>
      <trkpt lat="44.47516" lon="-1.10528">
        <ele>13.08</ele>
        <time>2015-10-31T12:23:50Z</time>
      </trkpt>
      <trkpt lat="44.47533" lon="-1.10573">
        <ele>13.12</ele>
        <time>2015-10-31T12:23:55Z</time>
      </trkpt>
      <trkpt lat="44.47537" lon="-1.10649">
        <ele>13</ele>
        <time>2015-10-31T12:24:02Z</time>
      </trkpt>
      <trkpt lat="44.47548" lon="-1.10692">
        <ele>13.35</ele>
        <time>2015-10-31T12:24:06Z</time>
      </trkpt>
      <trkpt lat="44.47557" lon="-1.10712">
        <ele>12.89</ele>
        <time>2015-10-31T12:24:08Z</time>
      </trkpt>
      <trkpt lat="44.47616" lon="-1.10752">
        <ele>12.36</ele>
        <time>2015-10-31T12:24:16Z</time>
      </trkpt>
      <trkpt lat="44.47617" lon="-1.10783">
        <ele>12.21</ele>
        <time>2015-10-31T12:24:20Z</time>
      </trkpt>
      <trkpt lat="44.47611" lon="-1.10802">
        <ele>12.08</ele>
        <time>2015-10-31T12:24:22Z</time>
      </trkpt>
      <trkpt lat="44.47581" lon="-1.10847">
        <ele>11.79</ele>
        <time>2015-10-31T12:24:29Z</time>
      </trkpt>
      <trkpt lat="44.47584" lon="-1.10862">
        <ele>12.01</ele>
        <time>2015-10-31T12:24:31Z</time>
      </trkpt>
      <trkpt lat="44.47634" lon="-1.10995">
        <ele>11.69</ele>
        <time>2015-10-31T12:24:46Z</time>
      </trkpt>
      <trkpt lat="44.47668" lon="-1.11098">
        <ele>11.42</ele>
        <time>2015-10-31T12:24:57Z</time>
      </trkpt>
      <trkpt lat="44.47698" lon="-1.11181">
        <ele>11.02</ele>
        <time>2015-10-31T12:25:06Z</time>
      </trkpt>
      <trkpt lat="44.4771" lon="-1.11209">
        <ele>10.71</ele>
        <time>2015-10-31T12:25:12Z</time>
      </trkpt>
      <trkpt lat="44.477" lon="-1.1119">
        <ele>10.97</ele>
        <time>2015-10-31T12:25:17Z</time>
      </trkpt>
      <trkpt lat="44.47664" lon="-1.11091">
        <ele>11.75</ele>
        <time>2015-10-31T12:25:29Z</time>
      </trkpt>
      <trkpt lat="44.47647" lon="-1.1104">
        <ele>11.43</ele>
        <time>2015-10-31T12:25:35Z</time>
      </trkpt>
      <trkpt lat="44.47606" lon="-1.10922">
        <ele>11.22</ele>
        <time>2015-10-31T12:25:48Z</time>
      </trkpt>
      <trkpt lat="44.47579" lon="-1.10845">
        <ele>12.21</ele>
        <time>2015-10-31T12:25:57Z</time>
      </trkpt>
      <trkpt lat="44.47603" lon="-1.10807">
        <ele>12.11</ele>
        <time>2015-10-31T12:26:04Z</time>
      </trkpt>
      <trkpt lat="44.47611" lon="-1.10781">
        <ele>12.18</ele>
        <time>2015-10-31T12:26:07Z</time>
      </trkpt>
      <trkpt lat="44.47608" lon="-1.10745">
        <ele>11.65</ele>
        <time>2015-10-31T12:26:12Z</time>
      </trkpt>
      <trkpt lat="44.47549" lon="-1.10695">
        <ele>12.74</ele>
        <time>2015-10-31T12:26:22Z</time>
      </trkpt>
      <trkpt lat="44.47537" lon="-1.10641">
        <ele>12.69</ele>
        <time>2015-10-31T12:26:27Z</time>
      </trkpt>
      <trkpt lat="44.47534" lon="-1.10559">
        <ele>12.79</ele>
        <time>2015-10-31T12:26:34Z</time>
      </trkpt>
      <trkpt lat="44.47506" lon="-1.10508">
        <ele>13.01</ele>
        <time>2015-10-31T12:26:40Z</time>
      </trkpt>
      <trkpt lat="44.47486" lon="-1.10488">
        <ele>12.9</ele>
        <time>2015-10-31T12:26:43Z</time>
      </trkpt>
      <trkpt lat="44.47431" lon="-1.10447">
        <ele>13.38</ele>
        <time>2015-10-31T12:26:51Z</time>
      </trkpt>
      <trkpt lat="44.47422" lon="-1.10427">
        <ele>13.45</ele>
        <time>2015-10-31T12:26:53Z</time>
      </trkpt>
      <trkpt lat="44.47362" lon="-1.10265">
        <ele>14.74</ele>
        <time>2015-10-31T12:27:09Z</time>
      </trkpt>
      <trkpt lat="44.47334" lon="-1.10233">
        <ele>14</ele>
        <time>2015-10-31T12:27:15Z</time>
      </trkpt>
      <trkpt lat="44.47219" lon="-1.10255">
        <ele>14.53</ele>
        <time>2015-10-31T12:27:31Z</time>
      </trkpt>
      <trkpt lat="44.47093" lon="-1.10266">
        <ele>14.7</ele>
        <time>2015-10-31T12:27:47Z</time>
      </trkpt>
      <trkpt lat="44.46988" lon="-1.10307">
        <ele>14.93</ele>
        <time>2015-10-31T12:28:01Z</time>
      </trkpt>
      <trkpt lat="44.46896" lon="-1.10341">
        <ele>14.9</ele>
        <time>2015-10-31T12:28:13Z</time>
      </trkpt>
      <trkpt lat="44.46868" lon="-1.10349">
        <ele>14.95</ele>
        <time>2015-10-31T12:28:17Z</time>
      </trkpt>
      <trkpt lat="44.46767" lon="-1.1039">
        <ele>15.5</ele>
        <time>2015-10-31T12:28:31Z</time>
      </trkpt>
      <trkpt lat="44.46745" lon="-1.10397">
        <ele>15.3</ele>
        <time>2015-10-31T12:28:34Z</time>
      </trkpt>
      <trkpt lat="44.46726" lon="-1.10378">
        <ele>15.19</ele>
        <time>2015-10-31T12:28:38Z</time>
      </trkpt>
      <trkpt lat="44.46722" lon="-1.10294">
        <ele>15.44</ele>
        <time>2015-10-31T12:28:49Z</time>
      </trkpt>
      <trkpt lat="44.46713" lon="-1.10261">
        <ele>14.7</ele>
        <time>2015-10-31T12:28:53Z</time>
      </trkpt>
      <trkpt lat="44.46701" lon="-1.10149">
        <ele>15.96</ele>
        <time>2015-10-31T12:29:06Z</time>
      </trkpt>
      <trkpt lat="44.46697" lon="-1.10106">
        <ele>15.4</ele>
        <time>2015-10-31T12:29:11Z</time>
      </trkpt>
      <trkpt lat="44.46686" lon="-1.1006">
        <ele>15.62</ele>
        <time>2015-10-31T12:29:17Z</time>
      </trkpt>
      <trkpt lat="44.46672" lon="-1.10035">
        <ele>15.32</ele>
        <time>2015-10-31T12:29:21Z</time>
      </trkpt>
      <trkpt lat="44.46614" lon="-1.09945">
        <ele>16.01</ele>
        <time>2015-10-31T12:29:36Z</time>
      </trkpt>
      <trkpt lat="44.46599" lon="-1.09921">
        <ele>16.06</ele>
        <time>2015-10-31T12:29:40Z</time>
      </trkpt>
      <trkpt lat="44.46588" lon="-1.09904">
        <ele>15.96</ele>
        <time>2015-10-31T12:29:43Z</time>
      </trkpt>
      <trkpt lat="44.46557" lon="-1.09825">
        <ele>16.78</ele>
        <time>2015-10-31T12:29:55Z</time>
      </trkpt>
      <trkpt lat="44.46553" lon="-1.09818">
        <ele>16.57</ele>
        <time>2015-10-31T12:29:56Z</time>
      </trkpt>
      <trkpt lat="44.46546" lon="-1.09786">
        <ele>17.17</ele>
        <time>2015-10-31T12:30:00Z</time>
      </trkpt>
      <trkpt lat="44.46536" lon="-1.09727">
        <ele>16.15</ele>
        <time>2015-10-31T12:30:08Z</time>
      </trkpt>
      <trkpt lat="44.46523" lon="-1.09695">
        <ele>15.91</ele>
        <time>2015-10-31T12:30:14Z</time>
      </trkpt>
      <trkpt lat="44.46503" lon="-1.09642">
        <ele>15.59</ele>
        <time>2015-10-31T12:30:23Z</time>
      </trkpt>
      <trkpt lat="44.46499" lon="-1.09629">
        <ele>15.65</ele>
        <time>2015-10-31T12:30:25Z</time>
      </trkpt>
      <trkpt lat="44.46501" lon="-1.09607">
        <ele>15.89</ele>
        <time>2015-10-31T12:30:28Z</time>
      </trkpt>
      <trkpt lat="44.46489" lon="-1.09595">
        <ele>15.21</ele>
        <time>2015-10-31T12:30:33Z</time>
      </trkpt>
      <trkpt lat="44.46441" lon="-1.09617">
        <ele>15.82</ele>
        <time>2015-10-31T12:30:46Z</time>
      </trkpt>
      <trkpt lat="44.46436" lon="-1.09619">
        <ele>15.87</ele>
        <time>2015-10-31T12:30:47Z</time>
      </trkpt>
      <trkpt lat="44.46395" lon="-1.09646">
        <ele>15.7</ele>
        <time>2015-10-31T12:30:59Z</time>
      </trkpt>
      <trkpt lat="44.46395" lon="-1.09646">
        <ele>15.7</ele>
        <time>2015-10-31T12:31:03Z</time>
      </trkpt>
      <trkpt lat="44.46387" lon="-1.09655">
        <ele>15.7</ele>
        <time>2015-10-31T12:31:12Z</time>
      </trkpt>
      <trkpt lat="44.4638" lon="-1.09678">
        <ele>15.6</ele>
        <time>2015-10-31T12:31:17Z</time>
      </trkpt>
      <trkpt lat="44.46379" lon="-1.09728">
        <ele>16.2</ele>
        <time>2015-10-31T12:31:24Z</time>
      </trkpt>
      <trkpt lat="44.46395" lon="-1.09766">
        <ele>15.83</ele>
        <time>2015-10-31T12:31:31Z</time>
      </trkpt>
      <trkpt lat="44.46401" lon="-1.09782">
        <ele>16.11</ele>
        <time>2015-10-31T12:31:35Z</time>
      </trkpt>
      <trkpt lat="44.4642" lon="-1.09835">
        <ele>16.17</ele>
        <time>2015-10-31T12:31:44Z</time>
      </trkpt>
      <trkpt lat="44.46426" lon="-1.09881">
        <ele>15.51</ele>
        <time>2015-10-31T12:31:52Z</time>
      </trkpt>
      <trkpt lat="44.46416" lon="-1.09917">
        <ele>15.93</ele>
        <time>2015-10-31T12:31:59Z</time>
      </trkpt>
      <trkpt lat="44.46406" lon="-1.09962">
        <ele>15.96</ele>
        <time>2015-10-31T12:32:06Z</time>
      </trkpt>
      <trkpt lat="44.46443" lon="-1.10075">
        <ele>15.59</ele>
        <time>2015-10-31T12:32:20Z</time>
      </trkpt>
      <trkpt lat="44.46448" lon="-1.10091">
        <ele>15.79</ele>
        <time>2015-10-31T12:32:22Z</time>
      </trkpt>
      <trkpt lat="44.46464" lon="-1.1014">
        <ele>15.67</ele>
        <time>2015-10-31T12:32:28Z</time>
      </trkpt>
      <trkpt lat="44.46467" lon="-1.10157">
        <ele>15.54</ele>
        <time>2015-10-31T12:32:30Z</time>
      </trkpt>
      <trkpt lat="44.46476" lon="-1.10185">
        <ele>15.69</ele>
        <time>2015-10-31T12:32:34Z</time>
      </trkpt>
      <trkpt lat="44.46503" lon="-1.10242">
        <ele>15.87</ele>
        <time>2015-10-31T12:32:42Z</time>
      </trkpt>
      <trkpt lat="44.46519" lon="-1.10262">
        <ele>15.4</ele>
        <time>2015-10-31T12:32:46Z</time>
      </trkpt>
      <trkpt lat="44.46534" lon="-1.10266">
        <ele>15.62</ele>
        <time>2015-10-31T12:32:49Z</time>
      </trkpt>
      <trkpt lat="44.46544" lon="-1.10271">
        <ele>15.83</ele>
        <time>2015-10-31T12:32:51Z</time>
      </trkpt>
      <trkpt lat="44.46557" lon="-1.10283">
        <ele>16.41</ele>
        <time>2015-10-31T12:32:54Z</time>
      </trkpt>
      <trkpt lat="44.4658" lon="-1.10312">
        <ele>15.56</ele>
        <time>2015-10-31T12:33:00Z</time>
      </trkpt>
      <trkpt lat="44.46627" lon="-1.10346">
        <ele>15.75</ele>
        <time>2015-10-31T12:33:10Z</time>
      </trkpt>
      <trkpt lat="44.46644" lon="-1.10345">
        <ele>15.59</ele>
        <time>2015-10-31T12:33:13Z</time>
      </trkpt>
      <trkpt lat="44.46675" lon="-1.10358">
        <ele>15.25</ele>
        <time>2015-10-31T12:33:19Z</time>
      </trkpt>
      <trkpt lat="44.46687" lon="-1.10404">
        <ele>15.04</ele>
        <time>2015-10-31T12:33:28Z</time>
      </trkpt>
      <trkpt lat="44.46635" lon="-1.10443">
        <ele>15.88</ele>
        <time>2015-10-31T12:33:39Z</time>
      </trkpt>
      <trkpt lat="44.46609" lon="-1.10461">
        <ele>15.55</ele>
        <time>2015-10-31T12:33:43Z</time>
      </trkpt>
      <trkpt lat="44.46578" lon="-1.10487">
        <ele>16.11</ele>
        <time>2015-10-31T12:33:48Z</time>
      </trkpt>
      <trkpt lat="44.465" lon="-1.10527">
        <ele>16.77</ele>
        <time>2015-10-31T12:33:59Z</time>
      </trkpt>
      <trkpt lat="44.4639" lon="-1.10581">
        <ele>17.92</ele>
        <time>2015-10-31T12:34:14Z</time>
      </trkpt>
      <trkpt lat="44.46368" lon="-1.10592">
        <ele>16.74</ele>
        <time>2015-10-31T12:34:17Z</time>
      </trkpt>
      <trkpt lat="44.46341" lon="-1.10616">
        <ele>16.22</ele>
        <time>2015-10-31T12:34:21Z</time>
      </trkpt>
      <trkpt lat="44.4626" lon="-1.10665">
        <ele>16.51</ele>
        <time>2015-10-31T12:34:32Z</time>
      </trkpt>
      <trkpt lat="44.46237" lon="-1.10671">
        <ele>16.45</ele>
        <time>2015-10-31T12:34:35Z</time>
      </trkpt>
      <trkpt lat="44.46199" lon="-1.10691">
        <ele>16.5</ele>
        <time>2015-10-31T12:34:40Z</time>
      </trkpt>
      <trkpt lat="44.4614" lon="-1.10749">
        <ele>16.53</ele>
        <time>2015-10-31T12:34:49Z</time>
      </trkpt>
      <trkpt lat="44.46117" lon="-1.10794">
        <ele>16.38</ele>
        <time>2015-10-31T12:34:54Z</time>
      </trkpt>
      <trkpt lat="44.46107" lon="-1.10825">
        <ele>16.42</ele>
        <time>2015-10-31T12:34:57Z</time>
      </trkpt>
      <trkpt lat="44.46051" lon="-1.10895">
        <ele>15.89</ele>
        <time>2015-10-31T12:35:06Z</time>
      </trkpt>
      <trkpt lat="44.46015" lon="-1.10941">
        <ele>16.12</ele>
        <time>2015-10-31T12:35:12Z</time>
      </trkpt>
      <trkpt lat="44.45967" lon="-1.11059">
        <ele>15.95</ele>
        <time>2015-10-31T12:35:24Z</time>
      </trkpt>
      <trkpt lat="44.45959" lon="-1.11078">
        <ele>15.88</ele>
        <time>2015-10-31T12:35:26Z</time>
      </trkpt>
      <trkpt lat="44.45925" lon="-1.11154">
        <ele>16.43</ele>
        <time>2015-10-31T12:35:34Z</time>
      </trkpt>
      <trkpt lat="44.4586" lon="-1.11244">
        <ele>16.27</ele>
        <time>2015-10-31T12:35:46Z</time>
      </trkpt>
      <trkpt lat="44.45787" lon="-1.11367">
        <ele>16.47</ele>
        <time>2015-10-31T12:36:00Z</time>
      </trkpt>
      <trkpt lat="44.45772" lon="-1.11394">
        <ele>16.68</ele>
        <time>2015-10-31T12:36:03Z</time>
      </trkpt>
      <trkpt lat="44.45696" lon="-1.11514">
        <ele>16.67</ele>
        <time>2015-10-31T12:36:17Z</time>
      </trkpt>
      <trkpt lat="44.45656" lon="-1.11648">
        <ele>17.14</ele>
        <time>2015-10-31T12:36:30Z</time>
      </trkpt>
      <trkpt lat="44.45644" lon="-1.11689">
        <ele>16.8</ele>
        <time>2015-10-31T12:36:34Z</time>
      </trkpt>
      <trkpt lat="44.45649" lon="-1.11744">
        <ele>16.53</ele>
        <time>2015-10-31T12:36:39Z</time>
      </trkpt>
      <trkpt lat="44.45713" lon="-1.11937">
        <ele>16.25</ele>
        <time>2015-10-31T12:36:57Z</time>
      </trkpt>
      <trkpt lat="44.45753" lon="-1.12061">
        <ele>14.52</ele>
        <time>2015-10-31T12:37:09Z</time>
      </trkpt>
      <trkpt lat="44.4576" lon="-1.12101">
        <ele>14.8</ele>
        <time>2015-10-31T12:37:13Z</time>
      </trkpt>
      <trkpt lat="44.45817" lon="-1.12281">
        <ele>15.17</ele>
        <time>2015-10-31T12:37:31Z</time>
      </trkpt>
      <trkpt lat="44.45843" lon="-1.1236">
        <ele>14.76</ele>
        <time>2015-10-31T12:37:39Z</time>
      </trkpt>
      <trkpt lat="44.45851" lon="-1.12374">
        <ele>14.21</ele>
        <time>2015-10-31T12:37:47Z</time>
      </trkpt>
      <trkpt lat="44.45851" lon="-1.12371">
        <ele>14.56</ele>
        <time>2015-10-31T12:38:14Z</time>
      </trkpt>
      <trkpt lat="44.45851" lon="-1.12389">
        <ele>14.44</ele>
        <time>2015-10-31T12:38:19Z</time>
      </trkpt>
      <trkpt lat="44.45861" lon="-1.12429">
        <ele>14.82</ele>
        <time>2015-10-31T12:38:26Z</time>
      </trkpt>
      <trkpt lat="44.45869" lon="-1.12451">
        <ele>14.67</ele>
        <time>2015-10-31T12:38:30Z</time>
      </trkpt>
      <trkpt lat="44.45895" lon="-1.12547">
        <ele>14.52</ele>
        <time>2015-10-31T12:38:43Z</time>
      </trkpt>
      <trkpt lat="44.45942" lon="-1.12701">
        <ele>14.46</ele>
        <time>2015-10-31T12:38:58Z</time>
      </trkpt>
      <trkpt lat="44.45928" lon="-1.12747">
        <ele>14.14</ele>
        <time>2015-10-31T12:39:04Z</time>
      </trkpt>
      <trkpt lat="44.45869" lon="-1.12796">
        <ele>14.2</ele>
        <time>2015-10-31T12:39:13Z</time>
      </trkpt>
      <trkpt lat="44.4577" lon="-1.12882">
        <ele>14.13</ele>
        <time>2015-10-31T12:39:28Z</time>
      </trkpt>
      <trkpt lat="44.45686" lon="-1.12951">
        <ele>14.56</ele>
        <time>2015-10-31T12:39:41Z</time>
      </trkpt>
      <trkpt lat="44.45645" lon="-1.12989">
        <ele>14.27</ele>
        <time>2015-10-31T12:39:48Z</time>
      </trkpt>
      <trkpt lat="44.45626" lon="-1.13011">
        <ele>14.06</ele>
        <time>2015-10-31T12:39:52Z</time>
      </trkpt>
      <trkpt lat="44.45626" lon="-1.13043">
        <ele>13.61</ele>
        <time>2015-10-31T12:39:57Z</time>
      </trkpt>
      <trkpt lat="44.45687" lon="-1.1315">
        <ele>14.33</ele>
        <time>2015-10-31T12:40:10Z</time>
      </trkpt>
      <trkpt lat="44.45741" lon="-1.13245">
        <ele>13.81</ele>
        <time>2015-10-31T12:40:21Z</time>
      </trkpt>
      <trkpt lat="44.45797" lon="-1.1335">
        <ele>13.8</ele>
        <time>2015-10-31T12:40:34Z</time>
      </trkpt>
      <trkpt lat="44.45843" lon="-1.13443">
        <ele>13.17</ele>
        <time>2015-10-31T12:40:46Z</time>
      </trkpt>
      <trkpt lat="44.45867" lon="-1.13485">
        <ele>12.52</ele>
        <time>2015-10-31T12:40:52Z</time>
      </trkpt>
      <trkpt lat="44.45876" lon="-1.13498">
        <ele>12.62</ele>
        <time>2015-10-31T12:40:54Z</time>
      </trkpt>
      <trkpt lat="44.45904" lon="-1.1352">
        <ele>12.14</ele>
        <time>2015-10-31T12:40:59Z</time>
      </trkpt>
      <trkpt lat="44.4592" lon="-1.13544">
        <ele>11.76</ele>
        <time>2015-10-31T12:41:03Z</time>
      </trkpt>
      <trkpt lat="44.45973" lon="-1.13625">
        <ele>10.83</ele>
        <time>2015-10-31T12:41:16Z</time>
      </trkpt>
      <trkpt lat="44.46014" lon="-1.13669">
        <ele>11.57</ele>
        <time>2015-10-31T12:41:24Z</time>
      </trkpt>
      <trkpt lat="44.46024" lon="-1.13678">
        <ele>11.25</ele>
        <time>2015-10-31T12:41:26Z</time>
      </trkpt>
      <trkpt lat="44.46034" lon="-1.13695">
        <ele>10.95</ele>
        <time>2015-10-31T12:41:32Z</time>
      </trkpt>
      <trkpt lat="44.4604" lon="-1.13703">
        <ele>10.72</ele>
        <time>2015-10-31T12:41:37Z</time>
      </trkpt>
      <trkpt lat="44.46033" lon="-1.13685">
        <ele>10.33</ele>
        <time>2015-10-31T12:41:45Z</time>
      </trkpt>
      <trkpt lat="44.4601" lon="-1.13658">
        <ele>11.25</ele>
        <time>2015-10-31T12:41:56Z</time>
      </trkpt>
      <trkpt lat="44.45999" lon="-1.13646">
        <ele>11.47</ele>
        <time>2015-10-31T12:41:59Z</time>
      </trkpt>
      <trkpt lat="44.45956" lon="-1.13585">
        <ele>11.82</ele>
        <time>2015-10-31T12:42:11Z</time>
      </trkpt>
      <trkpt lat="44.45943" lon="-1.1357">
        <ele>11.71</ele>
        <time>2015-10-31T12:42:14Z</time>
      </trkpt>
      <trkpt lat="44.45931" lon="-1.13546">
        <ele>12.39</ele>
        <time>2015-10-31T12:42:18Z</time>
      </trkpt>
      <trkpt lat="44.45898" lon="-1.13516">
        <ele>12.66</ele>
        <time>2015-10-31T12:42:26Z</time>
      </trkpt>
      <trkpt lat="44.45878" lon="-1.13518">
        <ele>13.24</ele>
        <time>2015-10-31T12:42:30Z</time>
      </trkpt>
      <trkpt lat="44.45862" lon="-1.1353">
        <ele>13.23</ele>
        <time>2015-10-31T12:42:33Z</time>
      </trkpt>
      <trkpt lat="44.45831" lon="-1.13566">
        <ele>12.61</ele>
        <time>2015-10-31T12:42:39Z</time>
      </trkpt>
      <trkpt lat="44.45802" lon="-1.13585">
        <ele>12.81</ele>
        <time>2015-10-31T12:42:44Z</time>
      </trkpt>
      <trkpt lat="44.45791" lon="-1.13635">
        <ele>13.25</ele>
        <time>2015-10-31T12:42:51Z</time>
      </trkpt>
      <trkpt lat="44.45788" lon="-1.13662">
        <ele>12.5</ele>
        <time>2015-10-31T12:42:56Z</time>
      </trkpt>
      <trkpt lat="44.45776" lon="-1.13679">
        <ele>13.03</ele>
        <time>2015-10-31T12:42:59Z</time>
      </trkpt>
      <trkpt lat="44.45753" lon="-1.13697">
        <ele>11.27</ele>
        <time>2015-10-31T12:43:05Z</time>
      </trkpt>
      <trkpt lat="44.4574" lon="-1.1372">
        <ele>11.84</ele>
        <time>2015-10-31T12:43:10Z</time>
      </trkpt>
      <trkpt lat="44.45734" lon="-1.13731">
        <ele>12.01</ele>
        <time>2015-10-31T12:43:12Z</time>
      </trkpt>
      <trkpt lat="44.45724" lon="-1.13744">
        <ele>11.51</ele>
        <time>2015-10-31T12:43:15Z</time>
      </trkpt>
      <trkpt lat="44.45706" lon="-1.13768">
        <ele>11.74</ele>
        <time>2015-10-31T12:43:20Z</time>
      </trkpt>
      <trkpt lat="44.45689" lon="-1.13784">
        <ele>11.68</ele>
        <time>2015-10-31T12:43:24Z</time>
      </trkpt>
      <trkpt lat="44.45664" lon="-1.13779">
        <ele>12.31</ele>
        <time>2015-10-31T12:43:30Z</time>
      </trkpt>
      <trkpt lat="44.45639" lon="-1.13755">
        <ele>12.58</ele>
        <time>2015-10-31T12:43:36Z</time>
      </trkpt>
      <trkpt lat="44.45619" lon="-1.13757">
        <ele>12.3</ele>
        <time>2015-10-31T12:43:41Z</time>
      </trkpt>
      <trkpt lat="44.45587" lon="-1.13805">
        <ele>13.63</ele>
        <time>2015-10-31T12:43:52Z</time>
      </trkpt>
      <trkpt lat="44.45572" lon="-1.13824">
        <ele>13.69</ele>
        <time>2015-10-31T12:43:56Z</time>
      </trkpt>
      <trkpt lat="44.45565" lon="-1.13836">
        <ele>12.73</ele>
        <time>2015-10-31T12:43:58Z</time>
      </trkpt>
      <trkpt lat="44.45548" lon="-1.13856">
        <ele>12.78</ele>
        <time>2015-10-31T12:44:02Z</time>
      </trkpt>
      <trkpt lat="44.45521" lon="-1.13897">
        <ele>12.04</ele>
        <time>2015-10-31T12:44:10Z</time>
      </trkpt>
      <trkpt lat="44.4551" lon="-1.13911">
        <ele>12.36</ele>
        <time>2015-10-31T12:44:13Z</time>
      </trkpt>
      <trkpt lat="44.45488" lon="-1.13918">
        <ele>11.97</ele>
        <time>2015-10-31T12:44:22Z</time>
      </trkpt>
      <trkpt lat="44.45478" lon="-1.13899">
        <ele>12.04</ele>
        <time>2015-10-31T12:44:34Z</time>
      </trkpt>
      <trkpt lat="44.45457" lon="-1.13863">
        <ele>12.7</ele>
        <time>2015-10-31T12:44:48Z</time>
      </trkpt>
      <trkpt lat="44.45436" lon="-1.13819">
        <ele>12.74</ele>
        <time>2015-10-31T12:45:01Z</time>
      </trkpt>
      <trkpt lat="44.45411" lon="-1.13779">
        <ele>12.64</ele>
        <time>2015-10-31T12:45:11Z</time>
      </trkpt>
      <trkpt lat="44.454" lon="-1.13762">
        <ele>12.86</ele>
        <time>2015-10-31T12:45:14Z</time>
      </trkpt>
      <trkpt lat="44.4535" lon="-1.13667">
        <ele>12.88</ele>
        <time>2015-10-31T12:45:29Z</time>
      </trkpt>
      <trkpt lat="44.45353" lon="-1.13645">
        <ele>13.23</ele>
        <time>2015-10-31T12:45:36Z</time>
      </trkpt>
      <trkpt lat="44.45352" lon="-1.13642">
        <ele>12.71</ele>
        <time>2015-10-31T12:45:43Z</time>
      </trkpt>
      <trkpt lat="44.45359" lon="-1.13623">
        <ele>12.71</ele>
        <time>2015-10-31T12:45:53Z</time>
      </trkpt>
      <trkpt lat="44.45348" lon="-1.13642">
        <ele>12.18</ele>
        <time>2015-10-31T12:46:02Z</time>
      </trkpt>
      <trkpt lat="44.45348" lon="-1.13643">
        <ele>12.35</ele>
        <time>2015-10-31T12:46:03Z</time>
      </trkpt>
      <trkpt lat="44.45348" lon="-1.13644">
        <ele>12.62</ele>
        <time>2015-10-31T12:46:05Z</time>
      </trkpt>
      <trkpt lat="44.45336" lon="-1.1364">
        <ele>13.31</ele>
        <time>2015-10-31T12:46:13Z</time>
      </trkpt>
      <trkpt lat="44.45323" lon="-1.13614">
        <ele>13.03</ele>
        <time>2015-10-31T12:46:19Z</time>
      </trkpt>
      <trkpt lat="44.45289" lon="-1.13552">
        <ele>13.75</ele>
        <time>2015-10-31T12:46:31Z</time>
      </trkpt>
      <trkpt lat="44.45239" lon="-1.13465">
        <ele>14.03</ele>
        <time>2015-10-31T12:46:47Z</time>
      </trkpt>
      <trkpt lat="44.45174" lon="-1.13343">
        <ele>14.72</ele>
        <time>2015-10-31T12:47:07Z</time>
      </trkpt>
      <trkpt lat="44.451" lon="-1.13205">
        <ele>15.16</ele>
        <time>2015-10-31T12:47:26Z</time>
      </trkpt>
      <trkpt lat="44.45088" lon="-1.13183">
        <ele>15.17</ele>
        <time>2015-10-31T12:47:29Z</time>
      </trkpt>
      <trkpt lat="44.45032" lon="-1.13085">
        <ele>15.84</ele>
        <time>2015-10-31T12:47:42Z</time>
      </trkpt>
      <trkpt lat="44.45003" lon="-1.13034">
        <ele>15.8</ele>
        <time>2015-10-31T12:47:49Z</time>
      </trkpt>
      <trkpt lat="44.44993" lon="-1.1301">
        <ele>15.95</ele>
        <time>2015-10-31T12:47:52Z</time>
      </trkpt>
      <trkpt lat="44.4496" lon="-1.12957">
        <ele>16.31</ele>
        <time>2015-10-31T12:48:00Z</time>
      </trkpt>
      <trkpt lat="44.44938" lon="-1.1296">
        <ele>16.17</ele>
        <time>2015-10-31T12:48:06Z</time>
      </trkpt>
      <trkpt lat="44.44934" lon="-1.12966">
        <ele>16.24</ele>
        <time>2015-10-31T12:48:07Z</time>
      </trkpt>
      <trkpt lat="44.4485" lon="-1.13072">
        <ele>16.63</ele>
        <time>2015-10-31T12:48:22Z</time>
      </trkpt>
      <trkpt lat="44.44764" lon="-1.13176">
        <ele>16.71</ele>
        <time>2015-10-31T12:48:37Z</time>
      </trkpt>
      <trkpt lat="44.44678" lon="-1.13285">
        <ele>16.5</ele>
        <time>2015-10-31T12:48:51Z</time>
      </trkpt>
      <trkpt lat="44.44588" lon="-1.13401">
        <ele>16.34</ele>
        <time>2015-10-31T12:49:07Z</time>
      </trkpt>
      <trkpt lat="44.44492" lon="-1.13523">
        <ele>16.26</ele>
        <time>2015-10-31T12:49:24Z</time>
      </trkpt>
      <trkpt lat="44.44412" lon="-1.13616">
        <ele>15.43</ele>
        <time>2015-10-31T12:49:37Z</time>
      </trkpt>
      <trkpt lat="44.44333" lon="-1.1371">
        <ele>15.49</ele>
        <time>2015-10-31T12:49:50Z</time>
      </trkpt>
      <trkpt lat="44.44317" lon="-1.13728">
        <ele>14.98</ele>
        <time>2015-10-31T12:49:53Z</time>
      </trkpt>
      <trkpt lat="44.44293" lon="-1.13728">
        <ele>15.88</ele>
        <time>2015-10-31T12:49:58Z</time>
      </trkpt>
      <trkpt lat="44.44244" lon="-1.13645">
        <ele>16.23</ele>
        <time>2015-10-31T12:50:10Z</time>
      </trkpt>
      <trkpt lat="44.44187" lon="-1.1357">
        <ele>16.04</ele>
        <time>2015-10-31T12:50:23Z</time>
      </trkpt>
      <trkpt lat="44.44184" lon="-1.13565">
        <ele>15.88</ele>
        <time>2015-10-31T12:50:24Z</time>
      </trkpt>
      <trkpt lat="44.44176" lon="-1.13553">
        <ele>16.12</ele>
        <time>2015-10-31T12:50:26Z</time>
      </trkpt>
      <trkpt lat="44.44167" lon="-1.135">
        <ele>15.63</ele>
        <time>2015-10-31T12:50:33Z</time>
      </trkpt>
      <trkpt lat="44.44173" lon="-1.13479">
        <ele>15.61</ele>
        <time>2015-10-31T12:50:36Z</time>
      </trkpt>
      <trkpt lat="44.44208" lon="-1.13388">
        <ele>16.17</ele>
        <time>2015-10-31T12:50:50Z</time>
      </trkpt>
      <trkpt lat="44.44215" lon="-1.13367">
        <ele>15.71</ele>
        <time>2015-10-31T12:50:58Z</time>
      </trkpt>
      <trkpt lat="44.44198" lon="-1.13418">
        <ele>16.48</ele>
        <time>2015-10-31T12:51:08Z</time>
      </trkpt>
      <trkpt lat="44.44166" lon="-1.13518">
        <ele>15.74</ele>
        <time>2015-10-31T12:51:21Z</time>
      </trkpt>
      <trkpt lat="44.44174" lon="-1.13555">
        <ele>14.85</ele>
        <time>2015-10-31T12:51:26Z</time>
      </trkpt>
      <trkpt lat="44.44202" lon="-1.13591">
        <ele>16.24</ele>
        <time>2015-10-31T12:51:33Z</time>
      </trkpt>
      <trkpt lat="44.4425" lon="-1.13661">
        <ele>15.73</ele>
        <time>2015-10-31T12:51:45Z</time>
      </trkpt>
      <trkpt lat="44.44286" lon="-1.13727">
        <ele>15.25</ele>
        <time>2015-10-31T12:51:55Z</time>
      </trkpt>
      <trkpt lat="44.44282" lon="-1.13762">
        <ele>15.37</ele>
        <time>2015-10-31T12:52:01Z</time>
      </trkpt>
      <trkpt lat="44.44205" lon="-1.13851">
        <ele>16.46</ele>
        <time>2015-10-31T12:52:15Z</time>
      </trkpt>
      <trkpt lat="44.442" lon="-1.13857">
        <ele>16.63</ele>
        <time>2015-10-31T12:52:16Z</time>
      </trkpt>
      <trkpt lat="44.44135" lon="-1.13936">
        <ele>16.08</ele>
        <time>2015-10-31T12:52:28Z</time>
      </trkpt>
      <trkpt lat="44.44117" lon="-1.13952">
        <ele>15.23</ele>
        <time>2015-10-31T12:52:32Z</time>
      </trkpt>
      <trkpt lat="44.44115" lon="-1.13953">
        <ele>15.16</ele>
        <time>2015-10-31T12:52:34Z</time>
      </trkpt>
      <trkpt lat="44.44101" lon="-1.13957">
        <ele>15.49</ele>
        <time>2015-10-31T12:52:42Z</time>
      </trkpt>
      <trkpt lat="44.44097" lon="-1.13958">
        <ele>15.46</ele>
        <time>2015-10-31T12:52:43Z</time>
      </trkpt>
      <trkpt lat="44.44048" lon="-1.13975">
        <ele>15.35</ele>
        <time>2015-10-31T12:52:52Z</time>
      </trkpt>
      <trkpt lat="44.43987" lon="-1.13994">
        <ele>15.55</ele>
        <time>2015-10-31T12:53:01Z</time>
      </trkpt>
      <trkpt lat="44.43928" lon="-1.1404">
        <ele>15.43</ele>
        <time>2015-10-31T12:53:11Z</time>
      </trkpt>
      <trkpt lat="44.43888" lon="-1.14051">
        <ele>16.08</ele>
        <time>2015-10-31T12:53:18Z</time>
      </trkpt>
      <trkpt lat="44.43862" lon="-1.14061">
        <ele>15.48</ele>
        <time>2015-10-31T12:53:22Z</time>
      </trkpt>
      <trkpt lat="44.43776" lon="-1.1413">
        <ele>15.87</ele>
        <time>2015-10-31T12:53:35Z</time>
      </trkpt>
      <trkpt lat="44.43765" lon="-1.14143">
        <ele>15.97</ele>
        <time>2015-10-31T12:53:37Z</time>
      </trkpt>
      <trkpt lat="44.43729" lon="-1.14173">
        <ele>16.14</ele>
        <time>2015-10-31T12:53:43Z</time>
      </trkpt>
      <trkpt lat="44.43675" lon="-1.1418">
        <ele>15.57</ele>
        <time>2015-10-31T12:53:52Z</time>
      </trkpt>
      <trkpt lat="44.43659" lon="-1.14184">
        <ele>16.11</ele>
        <time>2015-10-31T12:53:55Z</time>
      </trkpt>
      <trkpt lat="44.43618" lon="-1.14201">
        <ele>16.24</ele>
        <time>2015-10-31T12:54:02Z</time>
      </trkpt>
      <trkpt lat="44.43582" lon="-1.14215">
        <ele>15.71</ele>
        <time>2015-10-31T12:54:08Z</time>
      </trkpt>
      <trkpt lat="44.43541" lon="-1.14209">
        <ele>16.1</ele>
        <time>2015-10-31T12:54:15Z</time>
      </trkpt>
      <trkpt lat="44.435" lon="-1.14216">
        <ele>15.89</ele>
        <time>2015-10-31T12:54:22Z</time>
      </trkpt>
      <trkpt lat="44.43491" lon="-1.14226">
        <ele>15.8</ele>
        <time>2015-10-31T12:54:24Z</time>
      </trkpt>
      <trkpt lat="44.43466" lon="-1.14242">
        <ele>15.55</ele>
        <time>2015-10-31T12:54:29Z</time>
      </trkpt>
      <trkpt lat="44.43456" lon="-1.1425">
        <ele>15.65</ele>
        <time>2015-10-31T12:54:31Z</time>
      </trkpt>
      <trkpt lat="44.43408" lon="-1.14306">
        <ele>16.05</ele>
        <time>2015-10-31T12:54:44Z</time>
      </trkpt>
      <trkpt lat="44.43402" lon="-1.14308">
        <ele>15.83</ele>
        <time>2015-10-31T12:54:52Z</time>
      </trkpt>
      <trkpt lat="44.43394" lon="-1.14296">
        <ele>15.68</ele>
        <time>2015-10-31T12:54:56Z</time>
      </trkpt>
      <trkpt lat="44.43383" lon="-1.14288">
        <ele>15.58</ele>
        <time>2015-10-31T12:54:59Z</time>
      </trkpt>
      <trkpt lat="44.43347" lon="-1.14243">
        <ele>16.11</ele>
        <time>2015-10-31T12:55:08Z</time>
      </trkpt>
      <trkpt lat="44.43344" lon="-1.14236">
        <ele>16.03</ele>
        <time>2015-10-31T12:55:09Z</time>
      </trkpt>
      <trkpt lat="44.43344" lon="-1.14209">
        <ele>16.03</ele>
        <time>2015-10-31T12:55:14Z</time>
      </trkpt>
      <trkpt lat="44.43356" lon="-1.14177">
        <ele>16.26</ele>
        <time>2015-10-31T12:55:19Z</time>
      </trkpt>
      <trkpt lat="44.4336" lon="-1.14143">
        <ele>16.83</ele>
        <time>2015-10-31T12:55:24Z</time>
      </trkpt>
      <trkpt lat="44.43364" lon="-1.14117">
        <ele>16.52</ele>
        <time>2015-10-31T12:55:28Z</time>
      </trkpt>
      <trkpt lat="44.43374" lon="-1.14026">
        <ele>16.6</ele>
        <time>2015-10-31T12:55:41Z</time>
      </trkpt>
      <trkpt lat="44.43375" lon="-1.14016">
        <ele>16.35</ele>
        <time>2015-10-31T12:55:43Z</time>
      </trkpt>
      <trkpt lat="44.43366" lon="-1.1401">
        <ele>16.41</ele>
        <time>2015-10-31T12:55:47Z</time>
      </trkpt>
      <trkpt lat="44.43339" lon="-1.14009">
        <ele>16.88</ele>
        <time>2015-10-31T12:55:58Z</time>
      </trkpt>
      <trkpt lat="44.43339" lon="-1.14007">
        <ele>16.52</ele>
        <time>2015-10-31T12:56:14Z</time>
      </trkpt>
      <trkpt lat="44.43357" lon="-1.1401">
        <ele>16.97</ele>
        <time>2015-10-31T12:56:20Z</time>
      </trkpt>
      <trkpt lat="44.43374" lon="-1.14029">
        <ele>16.67</ele>
        <time>2015-10-31T12:56:26Z</time>
      </trkpt>
      <trkpt lat="44.43359" lon="-1.14149">
        <ele>16.75</ele>
        <time>2015-10-31T12:56:41Z</time>
      </trkpt>
      <trkpt lat="44.43358" lon="-1.14157">
        <ele>16.88</ele>
        <time>2015-10-31T12:56:42Z</time>
      </trkpt>
      <trkpt lat="44.43349" lon="-1.14192">
        <ele>16.48</ele>
        <time>2015-10-31T12:56:47Z</time>
      </trkpt>
      <trkpt lat="44.43343" lon="-1.14212">
        <ele>16.1</ele>
        <time>2015-10-31T12:56:50Z</time>
      </trkpt>
      <trkpt lat="44.43354" lon="-1.14255">
        <ele>16.54</ele>
        <time>2015-10-31T12:56:59Z</time>
      </trkpt>
      <trkpt lat="44.43365" lon="-1.14273">
        <ele>16.41</ele>
        <time>2015-10-31T12:57:03Z</time>
      </trkpt>
      <trkpt lat="44.43377" lon="-1.14289">
        <ele>16.43</ele>
        <time>2015-10-31T12:57:07Z</time>
      </trkpt>
      <trkpt lat="44.43392" lon="-1.14304">
        <ele>16.7</ele>
        <time>2015-10-31T12:57:11Z</time>
      </trkpt>
      <trkpt lat="44.4341" lon="-1.14291">
        <ele>17.03</ele>
        <time>2015-10-31T12:57:15Z</time>
      </trkpt>
      <trkpt lat="44.4345" lon="-1.14243">
        <ele>16.74</ele>
        <time>2015-10-31T12:57:23Z</time>
      </trkpt>
      <trkpt lat="44.43469" lon="-1.14231">
        <ele>16.83</ele>
        <time>2015-10-31T12:57:26Z</time>
      </trkpt>
      <trkpt lat="44.43483" lon="-1.14223">
        <ele>16.73</ele>
        <time>2015-10-31T12:57:28Z</time>
      </trkpt>
      <trkpt lat="44.43499" lon="-1.14205">
        <ele>16.59</ele>
        <time>2015-10-31T12:57:31Z</time>
      </trkpt>
      <trkpt lat="44.43533" lon="-1.14199">
        <ele>16.8</ele>
        <time>2015-10-31T12:57:36Z</time>
      </trkpt>
      <trkpt lat="44.43578" lon="-1.14205">
        <ele>16.82</ele>
        <time>2015-10-31T12:57:42Z</time>
      </trkpt>
      <trkpt lat="44.43673" lon="-1.14175">
        <ele>16.52</ele>
        <time>2015-10-31T12:57:55Z</time>
      </trkpt>
      <trkpt lat="44.43695" lon="-1.1418">
        <ele>16.81</ele>
        <time>2015-10-31T12:57:58Z</time>
      </trkpt>
      <trkpt lat="44.4373" lon="-1.14167">
        <ele>16.21</ele>
        <time>2015-10-31T12:58:03Z</time>
      </trkpt>
      <trkpt lat="44.43744" lon="-1.14155">
        <ele>16.38</ele>
        <time>2015-10-31T12:58:05Z</time>
      </trkpt>
      <trkpt lat="44.43804" lon="-1.14105">
        <ele>16.4</ele>
        <time>2015-10-31T12:58:14Z</time>
      </trkpt>
      <trkpt lat="44.43854" lon="-1.14066">
        <ele>15.82</ele>
        <time>2015-10-31T12:58:22Z</time>
      </trkpt>
      <trkpt lat="44.43885" lon="-1.14052">
        <ele>15.7</ele>
        <time>2015-10-31T12:58:27Z</time>
      </trkpt>
      <trkpt lat="44.43908" lon="-1.14047">
        <ele>15.87</ele>
        <time>2015-10-31T12:58:31Z</time>
      </trkpt>
      <trkpt lat="44.43931" lon="-1.14069">
        <ele>16.1</ele>
        <time>2015-10-31T12:58:36Z</time>
      </trkpt>
      <trkpt lat="44.43959" lon="-1.14165">
        <ele>16.12</ele>
        <time>2015-10-31T12:58:46Z</time>
      </trkpt>
      <trkpt lat="44.43962" lon="-1.14208">
        <ele>16.3</ele>
        <time>2015-10-31T12:58:50Z</time>
      </trkpt>
      <trkpt lat="44.4393" lon="-1.14374">
        <ele>15.47</ele>
        <time>2015-10-31T12:59:05Z</time>
      </trkpt>
      <trkpt lat="44.43897" lon="-1.14539">
        <ele>14.91</ele>
        <time>2015-10-31T12:59:19Z</time>
      </trkpt>
      <trkpt lat="44.43889" lon="-1.14574">
        <ele>14.66</ele>
        <time>2015-10-31T12:59:22Z</time>
      </trkpt>
      <trkpt lat="44.43856" lon="-1.14627">
        <ele>14.81</ele>
        <time>2015-10-31T12:59:28Z</time>
      </trkpt>
      <trkpt lat="44.43736" lon="-1.14699">
        <ele>14.83</ele>
        <time>2015-10-31T12:59:43Z</time>
      </trkpt>
      <trkpt lat="44.43674" lon="-1.14758">
        <ele>14.01</ele>
        <time>2015-10-31T12:59:52Z</time>
      </trkpt>
      <trkpt lat="44.4367" lon="-1.14798">
        <ele>14.42</ele>
        <time>2015-10-31T12:59:57Z</time>
      </trkpt>
      <trkpt lat="44.43691" lon="-1.14852">
        <ele>14.42</ele>
        <time>2015-10-31T13:00:03Z</time>
      </trkpt>
      <trkpt lat="44.43722" lon="-1.14875">
        <ele>14.53</ele>
        <time>2015-10-31T13:00:08Z</time>
      </trkpt>
      <trkpt lat="44.43796" lon="-1.14881">
        <ele>13.79</ele>
        <time>2015-10-31T13:00:17Z</time>
      </trkpt>
      <trkpt lat="44.43838" lon="-1.14924">
        <ele>14.07</ele>
        <time>2015-10-31T13:00:24Z</time>
      </trkpt>
      <trkpt lat="44.43865" lon="-1.15074">
        <ele>13.11</ele>
        <time>2015-10-31T13:00:38Z</time>
      </trkpt>
      <trkpt lat="44.43888" lon="-1.15158">
        <ele>12.86</ele>
        <time>2015-10-31T13:00:48Z</time>
      </trkpt>
      <trkpt lat="44.43892" lon="-1.15163">
        <ele>12.9</ele>
        <time>2015-10-31T13:00:53Z</time>
      </trkpt>
      <trkpt lat="44.43888" lon="-1.15175">
        <ele>13.02</ele>
        <time>2015-10-31T13:00:58Z</time>
      </trkpt>
      <trkpt lat="44.43884" lon="-1.15185">
        <ele>13.07</ele>
        <time>2015-10-31T13:01:00Z</time>
      </trkpt>
      <trkpt lat="44.43879" lon="-1.15216">
        <ele>13.12</ele>
        <time>2015-10-31T13:01:04Z</time>
      </trkpt>
      <trkpt lat="44.43877" lon="-1.15244">
        <ele>13.13</ele>
        <time>2015-10-31T13:01:07Z</time>
      </trkpt>
      <trkpt lat="44.43891" lon="-1.1533">
        <ele>13.06</ele>
        <time>2015-10-31T13:01:16Z</time>
      </trkpt>
      <trkpt lat="44.43924" lon="-1.15411">
        <ele>12.41</ele>
        <time>2015-10-31T13:01:25Z</time>
      </trkpt>
      <trkpt lat="44.43964" lon="-1.15488">
        <ele>12.02</ele>
        <time>2015-10-31T13:01:34Z</time>
      </trkpt>
      <trkpt lat="44.44019" lon="-1.15505">
        <ele>11.39</ele>
        <time>2015-10-31T13:01:43Z</time>
      </trkpt>
      <trkpt lat="44.44043" lon="-1.15507">
        <ele>11.45</ele>
        <time>2015-10-31T13:01:47Z</time>
      </trkpt>
      <trkpt lat="44.44054" lon="-1.15504">
        <ele>11.99</ele>
        <time>2015-10-31T13:01:49Z</time>
      </trkpt>
      <trkpt lat="44.44071" lon="-1.15523">
        <ele>12.05</ele>
        <time>2015-10-31T13:01:56Z</time>
      </trkpt>
      <trkpt lat="44.4407" lon="-1.15534">
        <ele>12.01</ele>
        <time>2015-10-31T13:01:58Z</time>
      </trkpt>
      <trkpt lat="44.44077" lon="-1.1561">
        <ele>11.45</ele>
        <time>2015-10-31T13:02:11Z</time>
      </trkpt>
      <trkpt lat="44.44079" lon="-1.15614">
        <ele>10.57</ele>
        <time>2015-10-31T13:02:14Z</time>
      </trkpt>
      <trkpt lat="44.44081" lon="-1.15617">
        <ele>10.95</ele>
        <time>2015-10-31T13:02:17Z</time>
      </trkpt>
      <trkpt lat="44.44086" lon="-1.15652">
        <ele>11.66</ele>
        <time>2015-10-31T13:02:28Z</time>
      </trkpt>
      <trkpt lat="44.44093" lon="-1.15693">
        <ele>11.57</ele>
        <time>2015-10-31T13:02:37Z</time>
      </trkpt>
      <trkpt lat="44.44131" lon="-1.15692">
        <ele>10.27</ele>
        <time>2015-10-31T13:02:46Z</time>
      </trkpt>
      <trkpt lat="44.44148" lon="-1.15667">
        <ele>10.9</ele>
        <time>2015-10-31T13:02:51Z</time>
      </trkpt>
      <trkpt lat="44.4416" lon="-1.15636">
        <ele>10.53</ele>
        <time>2015-10-31T13:02:56Z</time>
      </trkpt>
      <trkpt lat="44.44165" lon="-1.15607">
        <ele>10.8</ele>
        <time>2015-10-31T13:03:01Z</time>
      </trkpt>
      <trkpt lat="44.44166" lon="-1.15601">
        <ele>10.69</ele>
        <time>2015-10-31T13:03:05Z</time>
      </trkpt>
      <trkpt lat="44.44169" lon="-1.15596">
        <ele>10.86</ele>
        <time>2015-10-31T13:03:08Z</time>
      </trkpt>
      <trkpt lat="44.44178" lon="-1.15589">
        <ele>10.43</ele>
        <time>2015-10-31T13:03:11Z</time>
      </trkpt>
      <trkpt lat="44.44203" lon="-1.15553">
        <ele>10.47</ele>
        <time>2015-10-31T13:03:20Z</time>
      </trkpt>
      <trkpt lat="44.44207" lon="-1.15542">
        <ele>10.54</ele>
        <time>2015-10-31T13:03:22Z</time>
      </trkpt>
      <trkpt lat="44.44214" lon="-1.1553">
        <ele>10.61</ele>
        <time>2015-10-31T13:03:24Z</time>
      </trkpt>
      <trkpt lat="44.4423" lon="-1.15503">
        <ele>11.62</ele>
        <time>2015-10-31T13:03:28Z</time>
      </trkpt>
      <trkpt lat="44.44239" lon="-1.1549">
        <ele>11.1</ele>
        <time>2015-10-31T13:03:30Z</time>
      </trkpt>
      <trkpt lat="44.44276" lon="-1.15447">
        <ele>10.91</ele>
        <time>2015-10-31T13:03:38Z</time>
      </trkpt>
      <trkpt lat="44.44287" lon="-1.15433">
        <ele>10.66</ele>
        <time>2015-10-31T13:03:43Z</time>
      </trkpt>
      <trkpt lat="44.4429" lon="-1.15437">
        <ele>11.01</ele>
        <time>2015-10-31T13:03:48Z</time>
      </trkpt>
      <trkpt lat="44.4431" lon="-1.15427">
        <ele>10.31</ele>
        <time>2015-10-31T13:03:59Z</time>
      </trkpt>
      <trkpt lat="44.44318" lon="-1.15419">
        <ele>10.17</ele>
        <time>2015-10-31T13:04:02Z</time>
      </trkpt>
      <trkpt lat="44.44333" lon="-1.15406">
        <ele>10.65</ele>
        <time>2015-10-31T13:04:06Z</time>
      </trkpt>
      <trkpt lat="44.44362" lon="-1.15364">
        <ele>10.87</ele>
        <time>2015-10-31T13:04:14Z</time>
      </trkpt>
      <trkpt lat="44.44392" lon="-1.15329">
        <ele>10.72</ele>
        <time>2015-10-31T13:04:22Z</time>
      </trkpt>
      <trkpt lat="44.4439" lon="-1.15303">
        <ele>10.72</ele>
        <time>2015-10-31T13:04:26Z</time>
      </trkpt>
      <trkpt lat="44.44382" lon="-1.15283">
        <ele>11</ele>
        <time>2015-10-31T13:04:29Z</time>
      </trkpt>
      <trkpt lat="44.44356" lon="-1.1521">
        <ele>11.82</ele>
        <time>2015-10-31T13:04:41Z</time>
      </trkpt>
      <trkpt lat="44.4435" lon="-1.15172">
        <ele>12.26</ele>
        <time>2015-10-31T13:04:46Z</time>
      </trkpt>
      <trkpt lat="44.44311" lon="-1.15072">
        <ele>12.62</ele>
        <time>2015-10-31T13:04:58Z</time>
      </trkpt>
      <trkpt lat="44.44305" lon="-1.15054">
        <ele>12.3</ele>
        <time>2015-10-31T13:05:00Z</time>
      </trkpt>
      <trkpt lat="44.44301" lon="-1.15024">
        <ele>12.47</ele>
        <time>2015-10-31T13:05:03Z</time>
      </trkpt>
      <trkpt lat="44.44287" lon="-1.14979">
        <ele>12.17</ele>
        <time>2015-10-31T13:05:08Z</time>
      </trkpt>
      <trkpt lat="44.4426" lon="-1.14933">
        <ele>12.54</ele>
        <time>2015-10-31T13:05:14Z</time>
      </trkpt>
      <trkpt lat="44.4425" lon="-1.14908">
        <ele>12.59</ele>
        <time>2015-10-31T13:05:17Z</time>
      </trkpt>
      <trkpt lat="44.44237" lon="-1.14862">
        <ele>12.76</ele>
        <time>2015-10-31T13:05:22Z</time>
      </trkpt>
      <trkpt lat="44.44226" lon="-1.14837">
        <ele>12.67</ele>
        <time>2015-10-31T13:05:25Z</time>
      </trkpt>
      <trkpt lat="44.44198" lon="-1.14768">
        <ele>13.03</ele>
        <time>2015-10-31T13:05:34Z</time>
      </trkpt>
      <trkpt lat="44.44179" lon="-1.14767">
        <ele>12.72</ele>
        <time>2015-10-31T13:05:38Z</time>
      </trkpt>
      <trkpt lat="44.44149" lon="-1.14785">
        <ele>12.88</ele>
        <time>2015-10-31T13:05:43Z</time>
      </trkpt>
      <trkpt lat="44.44148" lon="-1.14763">
        <ele>13.01</ele>
        <time>2015-10-31T13:05:49Z</time>
      </trkpt>
      <trkpt lat="44.44152" lon="-1.14757">
        <ele>13.03</ele>
        <time>2015-10-31T13:05:50Z</time>
      </trkpt>
      <trkpt lat="44.44164" lon="-1.14715">
        <ele>13.13</ele>
        <time>2015-10-31T13:05:55Z</time>
      </trkpt>
      <trkpt lat="44.4416" lon="-1.14664">
        <ele>13.25</ele>
        <time>2015-10-31T13:06:00Z</time>
      </trkpt>
      <trkpt lat="44.44168" lon="-1.14623">
        <ele>13.28</ele>
        <time>2015-10-31T13:06:04Z</time>
      </trkpt>
      <trkpt lat="44.44174" lon="-1.14604">
        <ele>13.43</ele>
        <time>2015-10-31T13:06:06Z</time>
      </trkpt>
      <trkpt lat="44.44179" lon="-1.14542">
        <ele>13.49</ele>
        <time>2015-10-31T13:06:12Z</time>
      </trkpt>
      <trkpt lat="44.44178" lon="-1.14476">
        <ele>13.56</ele>
        <time>2015-10-31T13:06:18Z</time>
      </trkpt>
      <trkpt lat="44.44194" lon="-1.1436">
        <ele>14.17</ele>
        <time>2015-10-31T13:06:28Z</time>
      </trkpt>
      <trkpt lat="44.44167" lon="-1.14266">
        <ele>14.9</ele>
        <time>2015-10-31T13:06:37Z</time>
      </trkpt>
      <trkpt lat="44.44161" lon="-1.14219">
        <ele>14.71</ele>
        <time>2015-10-31T13:06:41Z</time>
      </trkpt>
      <trkpt lat="44.44145" lon="-1.14055">
        <ele>14.6</ele>
        <time>2015-10-31T13:06:55Z</time>
      </trkpt>
      <trkpt lat="44.44124" lon="-1.13972">
        <ele>14.59</ele>
        <time>2015-10-31T13:07:04Z</time>
      </trkpt>
      <trkpt lat="44.44128" lon="-1.13937">
        <ele>14.95</ele>
        <time>2015-10-31T13:07:09Z</time>
      </trkpt>
      <trkpt lat="44.44177" lon="-1.13885">
        <ele>15.26</ele>
        <time>2015-10-31T13:07:19Z</time>
      </trkpt>
      <trkpt lat="44.4422" lon="-1.13845">
        <ele>15.14</ele>
        <time>2015-10-31T13:07:28Z</time>
      </trkpt>
      <trkpt lat="44.44283" lon="-1.1377">
        <ele>15.31</ele>
        <time>2015-10-31T13:07:40Z</time>
      </trkpt>
      <trkpt lat="44.44349" lon="-1.1369">
        <ele>15.27</ele>
        <time>2015-10-31T13:07:51Z</time>
      </trkpt>
      <trkpt lat="44.44436" lon="-1.13585">
        <ele>15.59</ele>
        <time>2015-10-31T13:08:04Z</time>
      </trkpt>
      <trkpt lat="44.44486" lon="-1.13528">
        <ele>14.43</ele>
        <time>2015-10-31T13:08:12Z</time>
      </trkpt>
      <trkpt lat="44.44512" lon="-1.13542">
        <ele>14.62</ele>
        <time>2015-10-31T13:08:18Z</time>
      </trkpt>
      <trkpt lat="44.44517" lon="-1.13548">
        <ele>14.61</ele>
        <time>2015-10-31T13:08:19Z</time>
      </trkpt>
      <trkpt lat="44.44531" lon="-1.13563">
        <ele>14.63</ele>
        <time>2015-10-31T13:08:22Z</time>
      </trkpt>
      <trkpt lat="44.44545" lon="-1.13582">
        <ele>14.66</ele>
        <time>2015-10-31T13:08:25Z</time>
      </trkpt>
      <trkpt lat="44.44577" lon="-1.13605">
        <ele>14.65</ele>
        <time>2015-10-31T13:08:31Z</time>
      </trkpt>
      <trkpt lat="44.4459" lon="-1.13609">
        <ele>14.12</ele>
        <time>2015-10-31T13:08:33Z</time>
      </trkpt>
      <trkpt lat="44.44601" lon="-1.13609">
        <ele>13.24</ele>
        <time>2015-10-31T13:08:35Z</time>
      </trkpt>
      <trkpt lat="44.44636" lon="-1.13602">
        <ele>14.03</ele>
        <time>2015-10-31T13:08:42Z</time>
      </trkpt>
      <trkpt lat="44.44651" lon="-1.13606">
        <ele>13.9</ele>
        <time>2015-10-31T13:08:45Z</time>
      </trkpt>
      <trkpt lat="44.44663" lon="-1.13617">
        <ele>14.42</ele>
        <time>2015-10-31T13:08:48Z</time>
      </trkpt>
      <trkpt lat="44.44687" lon="-1.1363">
        <ele>14.35</ele>
        <time>2015-10-31T13:08:54Z</time>
      </trkpt>
      <trkpt lat="44.44701" lon="-1.13644">
        <ele>13.47</ele>
        <time>2015-10-31T13:08:58Z</time>
      </trkpt>
      <trkpt lat="44.44719" lon="-1.13654">
        <ele>14.02</ele>
        <time>2015-10-31T13:09:02Z</time>
      </trkpt>
      <trkpt lat="44.44749" lon="-1.13662">
        <ele>13.46</ele>
        <time>2015-10-31T13:09:08Z</time>
      </trkpt>
      <trkpt lat="44.44759" lon="-1.13665">
        <ele>13.87</ele>
        <time>2015-10-31T13:09:12Z</time>
      </trkpt>
      <trkpt lat="44.44781" lon="-1.13683">
        <ele>13.91</ele>
        <time>2015-10-31T13:09:20Z</time>
      </trkpt>
      <trkpt lat="44.44781" lon="-1.13663">
        <ele>14.01</ele>
        <time>2015-10-31T13:09:25Z</time>
      </trkpt>
      <trkpt lat="44.44775" lon="-1.13652">
        <ele>14.1</ele>
        <time>2015-10-31T13:09:27Z</time>
      </trkpt>
      <trkpt lat="44.44754" lon="-1.1361">
        <ele>13.96</ele>
        <time>2015-10-31T13:09:38Z</time>
      </trkpt>
      <trkpt lat="44.44754" lon="-1.13614">
        <ele>13.78</ele>
        <time>2015-10-31T13:09:40Z</time>
      </trkpt>
      <trkpt lat="44.44769" lon="-1.13641">
        <ele>14.25</ele>
        <time>2015-10-31T13:09:47Z</time>
      </trkpt>
      <trkpt lat="44.44781" lon="-1.13664">
        <ele>13.84</ele>
        <time>2015-10-31T13:09:51Z</time>
      </trkpt>
      <trkpt lat="44.44771" lon="-1.13687">
        <ele>14.53</ele>
        <time>2015-10-31T13:09:58Z</time>
      </trkpt>
      <trkpt lat="44.44766" lon="-1.13683">
        <ele>14.01</ele>
        <time>2015-10-31T13:09:59Z</time>
      </trkpt>
      <trkpt lat="44.44748" lon="-1.13666">
        <ele>14.01</ele>
        <time>2015-10-31T13:10:03Z</time>
      </trkpt>
      <trkpt lat="44.44718" lon="-1.13656">
        <ele>13.67</ele>
        <time>2015-10-31T13:10:09Z</time>
      </trkpt>
      <trkpt lat="44.44699" lon="-1.13645">
        <ele>14.14</ele>
        <time>2015-10-31T13:10:13Z</time>
      </trkpt>
      <trkpt lat="44.44682" lon="-1.1363">
        <ele>13.94</ele>
        <time>2015-10-31T13:10:17Z</time>
      </trkpt>
      <trkpt lat="44.44659" lon="-1.13615">
        <ele>14.13</ele>
        <time>2015-10-31T13:10:22Z</time>
      </trkpt>
      <trkpt lat="44.44636" lon="-1.13601">
        <ele>13.95</ele>
        <time>2015-10-31T13:10:27Z</time>
      </trkpt>
      <trkpt lat="44.44602" lon="-1.13601">
        <ele>14.17</ele>
        <time>2015-10-31T13:10:34Z</time>
      </trkpt>
      <trkpt lat="44.44564" lon="-1.13595">
        <ele>14.38</ele>
        <time>2015-10-31T13:10:42Z</time>
      </trkpt>
      <trkpt lat="44.44542" lon="-1.13573">
        <ele>14.91</ele>
        <time>2015-10-31T13:10:47Z</time>
      </trkpt>
      <trkpt lat="44.44531" lon="-1.13557">
        <ele>15.07</ele>
        <time>2015-10-31T13:10:50Z</time>
      </trkpt>
      <trkpt lat="44.44523" lon="-1.13549">
        <ele>14.95</ele>
        <time>2015-10-31T13:10:52Z</time>
      </trkpt>
      <trkpt lat="44.4451" lon="-1.1353">
        <ele>14.44</ele>
        <time>2015-10-31T13:10:56Z</time>
      </trkpt>
      <trkpt lat="44.44499" lon="-1.1351">
        <ele>14.43</ele>
        <time>2015-10-31T13:11:00Z</time>
      </trkpt>
      <trkpt lat="44.44505" lon="-1.13493">
        <ele>14.71</ele>
        <time>2015-10-31T13:11:04Z</time>
      </trkpt>
      <trkpt lat="44.44518" lon="-1.13478">
        <ele>14.64</ele>
        <time>2015-10-31T13:11:07Z</time>
      </trkpt>
      <trkpt lat="44.44547" lon="-1.13444">
        <ele>15.27</ele>
        <time>2015-10-31T13:11:13Z</time>
      </trkpt>
      <trkpt lat="44.44624" lon="-1.1335">
        <ele>14.8</ele>
        <time>2015-10-31T13:11:27Z</time>
      </trkpt>
      <trkpt lat="44.4471" lon="-1.13245">
        <ele>15.7</ele>
        <time>2015-10-31T13:11:40Z</time>
      </trkpt>
      <trkpt lat="44.4481" lon="-1.13118">
        <ele>16.1</ele>
        <time>2015-10-31T13:11:54Z</time>
      </trkpt>
      <trkpt lat="44.44907" lon="-1.12999">
        <ele>16.2</ele>
        <time>2015-10-31T13:12:08Z</time>
      </trkpt>
      <trkpt lat="44.44945" lon="-1.1295">
        <ele>15.6</ele>
        <time>2015-10-31T13:12:14Z</time>
      </trkpt>
      <trkpt lat="44.45029" lon="-1.12848">
        <ele>16.06</ele>
        <time>2015-10-31T13:12:27Z</time>
      </trkpt>
      <trkpt lat="44.45131" lon="-1.12718">
        <ele>15.47</ele>
        <time>2015-10-31T13:12:42Z</time>
      </trkpt>
      <trkpt lat="44.45229" lon="-1.12601">
        <ele>15.24</ele>
        <time>2015-10-31T13:12:56Z</time>
      </trkpt>
      <trkpt lat="44.45309" lon="-1.12504">
        <ele>14.96</ele>
        <time>2015-10-31T13:13:08Z</time>
      </trkpt>
      <trkpt lat="44.45315" lon="-1.12452">
        <ele>14.85</ele>
        <time>2015-10-31T13:13:14Z</time>
      </trkpt>
      <trkpt lat="44.4531" lon="-1.12445">
        <ele>15.16</ele>
        <time>2015-10-31T13:13:15Z</time>
      </trkpt>
      <trkpt lat="44.45232" lon="-1.12306">
        <ele>15.67</ele>
        <time>2015-10-31T13:13:33Z</time>
      </trkpt>
      <trkpt lat="44.45182" lon="-1.12214">
        <ele>15.65</ele>
        <time>2015-10-31T13:13:45Z</time>
      </trkpt>
      <trkpt lat="44.4517" lon="-1.12191">
        <ele>15.79</ele>
        <time>2015-10-31T13:13:48Z</time>
      </trkpt>
      <trkpt lat="44.45153" lon="-1.12163">
        <ele>15.93</ele>
        <time>2015-10-31T13:13:52Z</time>
      </trkpt>
      <trkpt lat="44.45089" lon="-1.12046">
        <ele>16.83</ele>
        <time>2015-10-31T13:14:08Z</time>
      </trkpt>
      <trkpt lat="44.45017" lon="-1.11912">
        <ele>16.42</ele>
        <time>2015-10-31T13:14:26Z</time>
      </trkpt>
      <trkpt lat="44.44999" lon="-1.11877">
        <ele>17.15</ele>
        <time>2015-10-31T13:14:31Z</time>
      </trkpt>
      <trkpt lat="44.45002" lon="-1.11843">
        <ele>16.48</ele>
        <time>2015-10-31T13:14:36Z</time>
      </trkpt>
      <trkpt lat="44.45009" lon="-1.11832">
        <ele>16.86</ele>
        <time>2015-10-31T13:14:38Z</time>
      </trkpt>
      <trkpt lat="44.45089" lon="-1.1175">
        <ele>16.51</ele>
        <time>2015-10-31T13:14:53Z</time>
      </trkpt>
      <trkpt lat="44.45152" lon="-1.11685">
        <ele>16.77</ele>
        <time>2015-10-31T13:15:08Z</time>
      </trkpt>
      <trkpt lat="44.45156" lon="-1.11683">
        <ele>16.87</ele>
        <time>2015-10-31T13:15:13Z</time>
      </trkpt>
      <trkpt lat="44.45188" lon="-1.1165">
        <ele>17.44</ele>
        <time>2015-10-31T13:15:21Z</time>
      </trkpt>
      <trkpt lat="44.45268" lon="-1.11568">
        <ele>17.93</ele>
        <time>2015-10-31T13:15:35Z</time>
      </trkpt>
      <trkpt lat="44.45353" lon="-1.11481">
        <ele>17.02</ele>
        <time>2015-10-31T13:15:50Z</time>
      </trkpt>
      <trkpt lat="44.45435" lon="-1.11388">
        <ele>17.15</ele>
        <time>2015-10-31T13:16:06Z</time>
      </trkpt>
      <trkpt lat="44.45523" lon="-1.11293">
        <ele>16.51</ele>
        <time>2015-10-31T13:16:24Z</time>
      </trkpt>
      <trkpt lat="44.45536" lon="-1.11279">
        <ele>16.98</ele>
        <time>2015-10-31T13:16:27Z</time>
      </trkpt>
      <trkpt lat="44.45553" lon="-1.11288">
        <ele>16.92</ele>
        <time>2015-10-31T13:16:31Z</time>
      </trkpt>
      <trkpt lat="44.45613" lon="-1.11396">
        <ele>16.6</ele>
        <time>2015-10-31T13:16:44Z</time>
      </trkpt>
      <trkpt lat="44.45668" lon="-1.11492">
        <ele>16.21</ele>
        <time>2015-10-31T13:16:54Z</time>
      </trkpt>
      <trkpt lat="44.4567" lon="-1.11576">
        <ele>16.08</ele>
        <time>2015-10-31T13:17:01Z</time>
      </trkpt>
      <trkpt lat="44.45635" lon="-1.11701">
        <ele>16.21</ele>
        <time>2015-10-31T13:17:12Z</time>
      </trkpt>
      <trkpt lat="44.45641" lon="-1.11748">
        <ele>16.06</ele>
        <time>2015-10-31T13:17:16Z</time>
      </trkpt>
      <trkpt lat="44.45717" lon="-1.11979">
        <ele>15.46</ele>
        <time>2015-10-31T13:17:36Z</time>
      </trkpt>
      <trkpt lat="44.45779" lon="-1.12184">
        <ele>14.8</ele>
        <time>2015-10-31T13:17:54Z</time>
      </trkpt>
      <trkpt lat="44.45836" lon="-1.12363">
        <ele>13.87</ele>
        <time>2015-10-31T13:18:11Z</time>
      </trkpt>
      <trkpt lat="44.45844" lon="-1.12377">
        <ele>13.97</ele>
        <time>2015-10-31T13:18:18Z</time>
      </trkpt>
      <trkpt lat="44.45846" lon="-1.12375">
        <ele>13.74</ele>
        <time>2015-10-31T13:18:30Z</time>
      </trkpt>
      <trkpt lat="44.45855" lon="-1.12372">
        <ele>13.66</ele>
        <time>2015-10-31T13:18:33Z</time>
      </trkpt>
      <trkpt lat="44.45913" lon="-1.1232">
        <ele>13.99</ele>
        <time>2015-10-31T13:18:46Z</time>
      </trkpt>
      <trkpt lat="44.45934" lon="-1.12299">
        <ele>13.85</ele>
        <time>2015-10-31T13:18:51Z</time>
      </trkpt>
      <trkpt lat="44.46009" lon="-1.12236">
        <ele>13.53</ele>
        <time>2015-10-31T13:19:08Z</time>
      </trkpt>
      <trkpt lat="44.46048" lon="-1.12206">
        <ele>13.77</ele>
        <time>2015-10-31T13:19:17Z</time>
      </trkpt>
      <trkpt lat="44.46099" lon="-1.12156">
        <ele>12.81</ele>
        <time>2015-10-31T13:19:29Z</time>
      </trkpt>
      <trkpt lat="44.46119" lon="-1.12169">
        <ele>13.19</ele>
        <time>2015-10-31T13:19:35Z</time>
      </trkpt>
      <trkpt lat="44.46124" lon="-1.12191">
        <ele>13.58</ele>
        <time>2015-10-31T13:19:38Z</time>
      </trkpt>
      <trkpt lat="44.46154" lon="-1.12315">
        <ele>12.66</ele>
        <time>2015-10-31T13:19:52Z</time>
      </trkpt>
      <trkpt lat="44.46159" lon="-1.12333">
        <ele>12.56</ele>
        <time>2015-10-31T13:19:54Z</time>
      </trkpt>
      <trkpt lat="44.46184" lon="-1.12423">
        <ele>12.49</ele>
        <time>2015-10-31T13:20:05Z</time>
      </trkpt>
      <trkpt lat="44.46188" lon="-1.12427">
        <ele>12.36</ele>
        <time>2015-10-31T13:20:07Z</time>
      </trkpt>
      <trkpt lat="44.46187" lon="-1.12426">
        <ele>12.4</ele>
        <time>2015-10-31T13:20:17Z</time>
      </trkpt>
      <trkpt lat="44.46184" lon="-1.12439">
        <ele>12.41</ele>
        <time>2015-10-31T13:20:24Z</time>
      </trkpt>
      <trkpt lat="44.46193" lon="-1.12469">
        <ele>12.7</ele>
        <time>2015-10-31T13:20:29Z</time>
      </trkpt>
      <trkpt lat="44.46214" lon="-1.1248">
        <ele>11.96</ele>
        <time>2015-10-31T13:20:36Z</time>
      </trkpt>
      <trkpt lat="44.46211" lon="-1.12486">
        <ele>11.93</ele>
        <time>2015-10-31T13:20:40Z</time>
      </trkpt>
      <trkpt lat="44.46199" lon="-1.12482">
        <ele>11.99</ele>
        <time>2015-10-31T13:20:45Z</time>
      </trkpt>
      <trkpt lat="44.46196" lon="-1.12479">
        <ele>11.92</ele>
        <time>2015-10-31T13:20:57Z</time>
      </trkpt>
      <trkpt lat="44.46196" lon="-1.12481">
        <ele>12.15</ele>
        <time>2015-10-31T13:20:58Z</time>
      </trkpt>
      <trkpt lat="44.46198" lon="-1.12496">
        <ele>12.01</ele>
        <time>2015-10-31T13:21:02Z</time>
      </trkpt>
      <trkpt lat="44.46222" lon="-1.12596">
        <ele>11.77</ele>
        <time>2015-10-31T13:21:16Z</time>
      </trkpt>
      <trkpt lat="44.46228" lon="-1.12621">
        <ele>11.67</ele>
        <time>2015-10-31T13:21:26Z</time>
      </trkpt>
      <trkpt lat="44.46227" lon="-1.12607">
        <ele>11.67</ele>
        <time>2015-10-31T13:21:30Z</time>
      </trkpt>
      <trkpt lat="44.46206" lon="-1.12516">
        <ele>12.68</ele>
        <time>2015-10-31T13:21:41Z</time>
      </trkpt>
      <trkpt lat="44.46185" lon="-1.12431">
        <ele>12.65</ele>
        <time>2015-10-31T13:21:51Z</time>
      </trkpt>
      <trkpt lat="44.46203" lon="-1.12398">
        <ele>12.37</ele>
        <time>2015-10-31T13:21:57Z</time>
      </trkpt>
      <trkpt lat="44.46249" lon="-1.12366">
        <ele>11.78</ele>
        <time>2015-10-31T13:22:07Z</time>
      </trkpt>
      <trkpt lat="44.4627" lon="-1.12349">
        <ele>12.26</ele>
        <time>2015-10-31T13:22:12Z</time>
      </trkpt>
      <trkpt lat="44.46286" lon="-1.12334">
        <ele>12.21</ele>
        <time>2015-10-31T13:22:16Z</time>
      </trkpt>
      <trkpt lat="44.46332" lon="-1.12299">
        <ele>11.88</ele>
        <time>2015-10-31T13:22:26Z</time>
      </trkpt>
      <trkpt lat="44.4634" lon="-1.12291">
        <ele>12.23</ele>
        <time>2015-10-31T13:22:28Z</time>
      </trkpt>
      <trkpt lat="44.46352" lon="-1.12285">
        <ele>11.94</ele>
        <time>2015-10-31T13:22:32Z</time>
      </trkpt>
      <trkpt lat="44.46365" lon="-1.12301">
        <ele>11.96</ele>
        <time>2015-10-31T13:22:38Z</time>
      </trkpt>
      <trkpt lat="44.46376" lon="-1.12317">
        <ele>11.85</ele>
        <time>2015-10-31T13:22:41Z</time>
      </trkpt>
      <trkpt lat="44.46405" lon="-1.12352">
        <ele>12.2</ele>
        <time>2015-10-31T13:22:48Z</time>
      </trkpt>
      <trkpt lat="44.46427" lon="-1.12377">
        <ele>11.64</ele>
        <time>2015-10-31T13:22:54Z</time>
      </trkpt>
      <trkpt lat="44.46451" lon="-1.12406">
        <ele>11.22</ele>
        <time>2015-10-31T13:23:05Z</time>
      </trkpt>
      <trkpt lat="44.46457" lon="-1.12399">
        <ele>10.32</ele>
        <time>2015-10-31T13:23:22Z</time>
      </trkpt>
      <trkpt lat="44.46457" lon="-1.12398">
        <ele>10.13</ele>
        <time>2015-10-31T13:23:24Z</time>
      </trkpt>
      <trkpt lat="44.46461" lon="-1.12379">
        <ele>11.41</ele>
        <time>2015-10-31T13:23:49Z</time>
      </trkpt>
      <trkpt lat="44.46461" lon="-1.12378">
        <ele>11.33</ele>
        <time>2015-10-31T13:23:50Z</time>
      </trkpt>
      <trkpt lat="44.46454" lon="-1.12366">
        <ele>10.78</ele>
        <time>2015-10-31T13:23:54Z</time>
      </trkpt>
      <trkpt lat="44.46435" lon="-1.12337">
        <ele>11.36</ele>
        <time>2015-10-31T13:24:00Z</time>
      </trkpt>
      <trkpt lat="44.4644" lon="-1.12307">
        <ele>11.67</ele>
        <time>2015-10-31T13:24:05Z</time>
      </trkpt>
      <trkpt lat="44.46518" lon="-1.1222">
        <ele>11.5</ele>
        <time>2015-10-31T13:24:22Z</time>
      </trkpt>
      <trkpt lat="44.46588" lon="-1.12139">
        <ele>11.11</ele>
        <time>2015-10-31T13:24:37Z</time>
      </trkpt>
      <trkpt lat="44.46605" lon="-1.12146">
        <ele>11.18</ele>
        <time>2015-10-31T13:24:41Z</time>
      </trkpt>
      <trkpt lat="44.46641" lon="-1.12217">
        <ele>11.65</ele>
        <time>2015-10-31T13:24:51Z</time>
      </trkpt>
      <trkpt lat="44.46653" lon="-1.1225">
        <ele>11.34</ele>
        <time>2015-10-31T13:24:55Z</time>
      </trkpt>
      <trkpt lat="44.4671" lon="-1.12371">
        <ele>10.5</ele>
        <time>2015-10-31T13:25:10Z</time>
      </trkpt>
      <trkpt lat="44.46724" lon="-1.12402">
        <ele>10.35</ele>
        <time>2015-10-31T13:25:14Z</time>
      </trkpt>
      <trkpt lat="44.4674" lon="-1.12438">
        <ele>9.67</ele>
        <time>2015-10-31T13:25:21Z</time>
      </trkpt>
      <trkpt lat="44.46747" lon="-1.12427">
        <ele>9.09</ele>
        <time>2015-10-31T13:25:25Z</time>
      </trkpt>
      <trkpt lat="44.46756" lon="-1.12411">
        <ele>8.61</ele>
        <time>2015-10-31T13:25:28Z</time>
      </trkpt>
      <trkpt lat="44.46773" lon="-1.12392">
        <ele>9.27</ele>
        <time>2015-10-31T13:25:32Z</time>
      </trkpt>
      <trkpt lat="44.46795" lon="-1.12368">
        <ele>9.36</ele>
        <time>2015-10-31T13:25:37Z</time>
      </trkpt>
      <trkpt lat="44.46863" lon="-1.12295">
        <ele>8.98</ele>
        <time>2015-10-31T13:25:52Z</time>
      </trkpt>
      <trkpt lat="44.46927" lon="-1.12222">
        <ele>8.89</ele>
        <time>2015-10-31T13:26:06Z</time>
      </trkpt>
      <trkpt lat="44.46988" lon="-1.12154">
        <ele>9.36</ele>
        <time>2015-10-31T13:26:20Z</time>
      </trkpt>
      <trkpt lat="44.46992" lon="-1.1215">
        <ele>9.29</ele>
        <time>2015-10-31T13:26:21Z</time>
      </trkpt>
      <trkpt lat="44.47016" lon="-1.12132">
        <ele>9.24</ele>
        <time>2015-10-31T13:26:29Z</time>
      </trkpt>
      <trkpt lat="44.4702" lon="-1.12111">
        <ele>9.24</ele>
        <time>2015-10-31T13:26:34Z</time>
      </trkpt>
      <trkpt lat="44.47004" lon="-1.12089">
        <ele>9.78</ele>
        <time>2015-10-31T13:26:38Z</time>
      </trkpt>
      <trkpt lat="44.46959" lon="-1.12003">
        <ele>9.69</ele>
        <time>2015-10-31T13:26:50Z</time>
      </trkpt>
      <trkpt lat="44.46934" lon="-1.11935">
        <ele>10.24</ele>
        <time>2015-10-31T13:26:58Z</time>
      </trkpt>
      <trkpt lat="44.46916" lon="-1.11904">
        <ele>10.54</ele>
        <time>2015-10-31T13:27:02Z</time>
      </trkpt>
      <trkpt lat="44.46877" lon="-1.11807">
        <ele>10.29</ele>
        <time>2015-10-31T13:27:14Z</time>
      </trkpt>
      <trkpt lat="44.46858" lon="-1.11749">
        <ele>10.56</ele>
        <time>2015-10-31T13:27:21Z</time>
      </trkpt>
      <trkpt lat="44.46839" lon="-1.11693">
        <ele>10.73</ele>
        <time>2015-10-31T13:27:28Z</time>
      </trkpt>
      <trkpt lat="44.46827" lon="-1.11668">
        <ele>10.82</ele>
        <time>2015-10-31T13:27:33Z</time>
      </trkpt>
      <trkpt lat="44.46818" lon="-1.11651">
        <ele>10.93</ele>
        <time>2015-10-31T13:27:36Z</time>
      </trkpt>
      <trkpt lat="44.46775" lon="-1.11562">
        <ele>11.37</ele>
        <time>2015-10-31T13:27:50Z</time>
      </trkpt>
      <trkpt lat="44.46764" lon="-1.11539">
        <ele>10.87</ele>
        <time>2015-10-31T13:27:54Z</time>
      </trkpt>
      <trkpt lat="44.46783" lon="-1.11531">
        <ele>10.91</ele>
        <time>2015-10-31T13:28:01Z</time>
      </trkpt>
      <trkpt lat="44.46785" lon="-1.11535">
        <ele>10.94</ele>
        <time>2015-10-31T13:28:02Z</time>
      </trkpt>
      <trkpt lat="44.46807" lon="-1.11573">
        <ele>10.87</ele>
        <time>2015-10-31T13:28:14Z</time>
      </trkpt>
      <trkpt lat="44.46799" lon="-1.11563">
        <ele>10.8</ele>
        <time>2015-10-31T13:28:18Z</time>
      </trkpt>
      <trkpt lat="44.46782" lon="-1.11528">
        <ele>11.24</ele>
        <time>2015-10-31T13:28:25Z</time>
      </trkpt>
      <trkpt lat="44.46768" lon="-1.11528">
        <ele>11.78</ele>
        <time>2015-10-31T13:28:30Z</time>
      </trkpt>
      <trkpt lat="44.46761" lon="-1.11531">
        <ele>11.36</ele>
        <time>2015-10-31T13:28:33Z</time>
      </trkpt>
      <trkpt lat="44.4675" lon="-1.11514">
        <ele>11.36</ele>
        <time>2015-10-31T13:28:38Z</time>
      </trkpt>
      <trkpt lat="44.46742" lon="-1.11496">
        <ele>11.31</ele>
        <time>2015-10-31T13:28:41Z</time>
      </trkpt>
      <trkpt lat="44.4673" lon="-1.11469">
        <ele>11.98</ele>
        <time>2015-10-31T13:28:45Z</time>
      </trkpt>
      <trkpt lat="44.46722" lon="-1.11445">
        <ele>12.13</ele>
        <time>2015-10-31T13:28:48Z</time>
      </trkpt>
      <trkpt lat="44.46709" lon="-1.11417">
        <ele>12.05</ele>
        <time>2015-10-31T13:28:52Z</time>
      </trkpt>
      <trkpt lat="44.46687" lon="-1.11348">
        <ele>12.08</ele>
        <time>2015-10-31T13:29:00Z</time>
      </trkpt>
      <trkpt lat="44.46679" lon="-1.11287">
        <ele>12.58</ele>
        <time>2015-10-31T13:29:07Z</time>
      </trkpt>
      <trkpt lat="44.46677" lon="-1.11253">
        <ele>12.5</ele>
        <time>2015-10-31T13:29:11Z</time>
      </trkpt>
      <trkpt lat="44.46671" lon="-1.11183">
        <ele>12.24</ele>
        <time>2015-10-31T13:29:19Z</time>
      </trkpt>
      <trkpt lat="44.46667" lon="-1.11106">
        <ele>12.75</ele>
        <time>2015-10-31T13:29:28Z</time>
      </trkpt>
      <trkpt lat="44.46671" lon="-1.11064">
        <ele>12.86</ele>
        <time>2015-10-31T13:29:33Z</time>
      </trkpt>
      <trkpt lat="44.4667" lon="-1.1101">
        <ele>12.99</ele>
        <time>2015-10-31T13:29:39Z</time>
      </trkpt>
      <trkpt lat="44.46671" lon="-1.10964">
        <ele>13.1</ele>
        <time>2015-10-31T13:29:44Z</time>
      </trkpt>
      <trkpt lat="44.46672" lon="-1.10946">
        <ele>13.04</ele>
        <time>2015-10-31T13:29:46Z</time>
      </trkpt>
      <trkpt lat="44.46672" lon="-1.10927">
        <ele>12.88</ele>
        <time>2015-10-31T13:29:48Z</time>
      </trkpt>
      <trkpt lat="44.46679" lon="-1.10865">
        <ele>13.24</ele>
        <time>2015-10-31T13:29:55Z</time>
      </trkpt>
      <trkpt lat="44.46681" lon="-1.10829">
        <ele>13.1</ele>
        <time>2015-10-31T13:29:59Z</time>
      </trkpt>
      <trkpt lat="44.46684" lon="-1.10804">
        <ele>12.9</ele>
        <time>2015-10-31T13:30:02Z</time>
      </trkpt>
      <trkpt lat="44.46686" lon="-1.10786">
        <ele>12.68</ele>
        <time>2015-10-31T13:30:04Z</time>
      </trkpt>
      <trkpt lat="44.46702" lon="-1.10682">
        <ele>13.38</ele>
        <time>2015-10-31T13:30:16Z</time>
      </trkpt>
      <trkpt lat="44.46708" lon="-1.10573">
        <ele>13.36</ele>
        <time>2015-10-31T13:30:30Z</time>
      </trkpt>
      <trkpt lat="44.46721" lon="-1.10481">
        <ele>13.45</ele>
        <time>2015-10-31T13:30:42Z</time>
      </trkpt>
      <trkpt lat="44.46723" lon="-1.10465">
        <ele>13.61</ele>
        <time>2015-10-31T13:30:44Z</time>
      </trkpt>
      <trkpt lat="44.46723" lon="-1.10441">
        <ele>13.83</ele>
        <time>2015-10-31T13:30:47Z</time>
      </trkpt>
      <trkpt lat="44.46724" lon="-1.10426">
        <ele>13.99</ele>
        <time>2015-10-31T13:30:49Z</time>
      </trkpt>
      <trkpt lat="44.46715" lon="-1.10409">
        <ele>13.58</ele>
        <time>2015-10-31T13:30:53Z</time>
      </trkpt>
      <trkpt lat="44.46699" lon="-1.10409">
        <ele>13.62</ele>
        <time>2015-10-31T13:30:56Z</time>
      </trkpt>
      <trkpt lat="44.46672" lon="-1.1042">
        <ele>13.91</ele>
        <time>2015-10-31T13:31:01Z</time>
      </trkpt>
      <trkpt lat="44.46616" lon="-1.10453">
        <ele>13.86</ele>
        <time>2015-10-31T13:31:10Z</time>
      </trkpt>
      <trkpt lat="44.46577" lon="-1.1049">
        <ele>13.95</ele>
        <time>2015-10-31T13:31:16Z</time>
      </trkpt>
      <trkpt lat="44.46462" lon="-1.1055">
        <ele>14.74</ele>
        <time>2015-10-31T13:31:31Z</time>
      </trkpt>
      <trkpt lat="44.46361" lon="-1.10593">
        <ele>13.83</ele>
        <time>2015-10-31T13:31:44Z</time>
      </trkpt>
      <trkpt lat="44.46287" lon="-1.10649">
        <ele>14.59</ele>
        <time>2015-10-31T13:31:55Z</time>
      </trkpt>
      <trkpt lat="44.46257" lon="-1.10664">
        <ele>14.47</ele>
        <time>2015-10-31T13:31:59Z</time>
      </trkpt>
      <trkpt lat="44.46218" lon="-1.10675">
        <ele>14.41</ele>
        <time>2015-10-31T13:32:04Z</time>
      </trkpt>
      <trkpt lat="44.46136" lon="-1.10746">
        <ele>14.69</ele>
        <time>2015-10-31T13:32:16Z</time>
      </trkpt>
      <trkpt lat="44.46109" lon="-1.10798">
        <ele>14.37</ele>
        <time>2015-10-31T13:32:22Z</time>
      </trkpt>
      <trkpt lat="44.46104" lon="-1.10817">
        <ele>14.17</ele>
        <time>2015-10-31T13:32:24Z</time>
      </trkpt>
      <trkpt lat="44.46086" lon="-1.1085">
        <ele>14.44</ele>
        <time>2015-10-31T13:32:28Z</time>
      </trkpt>
      <trkpt lat="44.46018" lon="-1.10936">
        <ele>14.17</ele>
        <time>2015-10-31T13:32:41Z</time>
      </trkpt>
      <trkpt lat="44.46004" lon="-1.10957">
        <ele>14.26</ele>
        <time>2015-10-31T13:32:44Z</time>
      </trkpt>
      <trkpt lat="44.45968" lon="-1.11042">
        <ele>14.36</ele>
        <time>2015-10-31T13:32:55Z</time>
      </trkpt>
      <trkpt lat="44.4596" lon="-1.11062">
        <ele>14.14</ele>
        <time>2015-10-31T13:32:58Z</time>
      </trkpt>
      <trkpt lat="44.45966" lon="-1.1109">
        <ele>14.04</ele>
        <time>2015-10-31T13:33:02Z</time>
      </trkpt>
      <trkpt lat="44.45974" lon="-1.11106">
        <ele>14.15</ele>
        <time>2015-10-31T13:33:04Z</time>
      </trkpt>
      <trkpt lat="44.46004" lon="-1.11158">
        <ele>14</ele>
        <time>2015-10-31T13:33:11Z</time>
      </trkpt>
      <trkpt lat="44.46053" lon="-1.11193">
        <ele>13.98</ele>
        <time>2015-10-31T13:33:20Z</time>
      </trkpt>
      <trkpt lat="44.46063" lon="-1.11201">
        <ele>13.97</ele>
        <time>2015-10-31T13:33:22Z</time>
      </trkpt>
      <trkpt lat="44.46075" lon="-1.11218">
        <ele>13.48</ele>
        <time>2015-10-31T13:33:30Z</time>
      </trkpt>
      <trkpt lat="44.46076" lon="-1.11214">
        <ele>13.64</ele>
        <time>2015-10-31T13:33:33Z</time>
      </trkpt>
      <trkpt lat="44.46052" lon="-1.11191">
        <ele>14.01</ele>
        <time>2015-10-31T13:33:41Z</time>
      </trkpt>
      <trkpt lat="44.46019" lon="-1.11167">
        <ele>14.32</ele>
        <time>2015-10-31T13:33:49Z</time>
      </trkpt>
      <trkpt lat="44.46011" lon="-1.11157">
        <ele>14.21</ele>
        <time>2015-10-31T13:33:51Z</time>
      </trkpt>
      <trkpt lat="44.4597" lon="-1.11089">
        <ele>14.42</ele>
        <time>2015-10-31T13:34:01Z</time>
      </trkpt>
      <trkpt lat="44.45966" lon="-1.11062">
        <ele>14.32</ele>
        <time>2015-10-31T13:34:06Z</time>
      </trkpt>
      <trkpt lat="44.46002" lon="-1.10973">
        <ele>14.47</ele>
        <time>2015-10-31T13:34:17Z</time>
      </trkpt>
      <trkpt lat="44.46082" lon="-1.10863">
        <ele>14.54</ele>
        <time>2015-10-31T13:34:31Z</time>
      </trkpt>
      <trkpt lat="44.461" lon="-1.10841">
        <ele>14.59</ele>
        <time>2015-10-31T13:34:34Z</time>
      </trkpt>
      <trkpt lat="44.46149" lon="-1.10743">
        <ele>14.78</ele>
        <time>2015-10-31T13:34:45Z</time>
      </trkpt>
      <trkpt lat="44.46218" lon="-1.10681">
        <ele>15.17</ele>
        <time>2015-10-31T13:34:56Z</time>
      </trkpt>
      <trkpt lat="44.46231" lon="-1.10674">
        <ele>15.3</ele>
        <time>2015-10-31T13:34:58Z</time>
      </trkpt>
      <trkpt lat="44.46257" lon="-1.10668">
        <ele>15.45</ele>
        <time>2015-10-31T13:35:02Z</time>
      </trkpt>
      <trkpt lat="44.4628" lon="-1.10657">
        <ele>14.43</ele>
        <time>2015-10-31T13:35:06Z</time>
      </trkpt>
      <trkpt lat="44.46325" lon="-1.10631">
        <ele>14.16</ele>
        <time>2015-10-31T13:35:14Z</time>
      </trkpt>
      <trkpt lat="44.46326" lon="-1.10599">
        <ele>14.28</ele>
        <time>2015-10-31T13:35:20Z</time>
      </trkpt>
      <trkpt lat="44.4629" lon="-1.10499">
        <ele>14.41</ele>
        <time>2015-10-31T13:35:34Z</time>
      </trkpt>
      <trkpt lat="44.46284" lon="-1.10484">
        <ele>14.98</ele>
        <time>2015-10-31T13:35:36Z</time>
      </trkpt>
      <trkpt lat="44.4627" lon="-1.10441">
        <ele>14.71</ele>
        <time>2015-10-31T13:35:42Z</time>
      </trkpt>
      <trkpt lat="44.46258" lon="-1.10412">
        <ele>15.27</ele>
        <time>2015-10-31T13:35:46Z</time>
      </trkpt>
      <trkpt lat="44.46225" lon="-1.10311">
        <ele>14.79</ele>
        <time>2015-10-31T13:36:00Z</time>
      </trkpt>
      <trkpt lat="44.46223" lon="-1.10303">
        <ele>14.91</ele>
        <time>2015-10-31T13:36:01Z</time>
      </trkpt>
      <trkpt lat="44.46183" lon="-1.10191">
        <ele>14.75</ele>
        <time>2015-10-31T13:36:17Z</time>
      </trkpt>
      <trkpt lat="44.46181" lon="-1.10184">
        <ele>14.24</ele>
        <time>2015-10-31T13:36:18Z</time>
      </trkpt>
      <trkpt lat="44.46176" lon="-1.10171">
        <ele>14.44</ele>
        <time>2015-10-31T13:36:20Z</time>
      </trkpt>
      <trkpt lat="44.46171" lon="-1.1015">
        <ele>14.79</ele>
        <time>2015-10-31T13:36:23Z</time>
      </trkpt>
      <trkpt lat="44.46166" lon="-1.10137">
        <ele>15.54</ele>
        <time>2015-10-31T13:36:25Z</time>
      </trkpt>
      <trkpt lat="44.46154" lon="-1.10103">
        <ele>15.34</ele>
        <time>2015-10-31T13:36:30Z</time>
      </trkpt>
      <trkpt lat="44.46146" lon="-1.10075">
        <ele>14.69</ele>
        <time>2015-10-31T13:36:34Z</time>
      </trkpt>
      <trkpt lat="44.46133" lon="-1.10035">
        <ele>15.06</ele>
        <time>2015-10-31T13:36:44Z</time>
      </trkpt>
      <trkpt lat="44.46135" lon="-1.10034">
        <ele>15.21</ele>
        <time>2015-10-31T13:37:08Z</time>
      </trkpt>
      <trkpt lat="44.46137" lon="-1.10033">
        <ele>14.57</ele>
        <time>2015-10-31T13:37:24Z</time>
      </trkpt>
      <trkpt lat="44.46136" lon="-1.10017">
        <ele>14.89</ele>
        <time>2015-10-31T13:37:29Z</time>
      </trkpt>
      <trkpt lat="44.46127" lon="-1.09989">
        <ele>15.07</ele>
        <time>2015-10-31T13:37:34Z</time>
      </trkpt>
      <trkpt lat="44.46116" lon="-1.09959">
        <ele>15.12</ele>
        <time>2015-10-31T13:37:40Z</time>
      </trkpt>
      <trkpt lat="44.4611" lon="-1.09938">
        <ele>15.11</ele>
        <time>2015-10-31T13:37:44Z</time>
      </trkpt>
      <trkpt lat="44.46088" lon="-1.09877">
        <ele>15.51</ele>
        <time>2015-10-31T13:37:57Z</time>
      </trkpt>
      <trkpt lat="44.4609" lon="-1.09876">
        <ele>15.41</ele>
        <time>2015-10-31T13:37:59Z</time>
      </trkpt>
      <trkpt lat="44.46107" lon="-1.09863">
        <ele>14.12</ele>
        <time>2015-10-31T13:38:06Z</time>
      </trkpt>
      <trkpt lat="44.46149" lon="-1.09829">
        <ele>15.04</ele>
        <time>2015-10-31T13:38:17Z</time>
      </trkpt>
      <trkpt lat="44.46193" lon="-1.09795">
        <ele>14.91</ele>
        <time>2015-10-31T13:38:30Z</time>
      </trkpt>
      <trkpt lat="44.46232" lon="-1.09767">
        <ele>15.14</ele>
        <time>2015-10-31T13:38:44Z</time>
      </trkpt>
      <trkpt lat="44.46284" lon="-1.09728">
        <ele>14.71</ele>
        <time>2015-10-31T13:38:57Z</time>
      </trkpt>
      <trkpt lat="44.46351" lon="-1.09677">
        <ele>14.98</ele>
        <time>2015-10-31T13:39:12Z</time>
      </trkpt>
      <trkpt lat="44.46381" lon="-1.09649">
        <ele>14.8</ele>
        <time>2015-10-31T13:39:20Z</time>
      </trkpt>
      <trkpt lat="44.46416" lon="-1.09633">
        <ele>14.83</ele>
        <time>2015-10-31T13:39:30Z</time>
      </trkpt>
      <trkpt lat="44.46425" lon="-1.09626">
        <ele>14.61</ele>
        <time>2015-10-31T13:39:33Z</time>
      </trkpt>
      <trkpt lat="44.46454" lon="-1.09602">
        <ele>14.71</ele>
        <time>2015-10-31T13:39:40Z</time>
      </trkpt>
      <trkpt lat="44.46473" lon="-1.09595">
        <ele>14.01</ele>
        <time>2015-10-31T13:39:44Z</time>
      </trkpt>
      <trkpt lat="44.4649" lon="-1.09584">
        <ele>13.94</ele>
        <time>2015-10-31T13:39:51Z</time>
      </trkpt>
      <trkpt lat="44.46476" lon="-1.09561">
        <ele>14.61</ele>
        <time>2015-10-31T13:39:59Z</time>
      </trkpt>
      <trkpt lat="44.46462" lon="-1.09537">
        <ele>14.53</ele>
        <time>2015-10-31T13:40:04Z</time>
      </trkpt>
      <trkpt lat="44.46429" lon="-1.09438">
        <ele>14.64</ele>
        <time>2015-10-31T13:40:18Z</time>
      </trkpt>
      <trkpt lat="44.46425" lon="-1.09426">
        <ele>15</ele>
        <time>2015-10-31T13:40:20Z</time>
      </trkpt>
      <trkpt lat="44.46432" lon="-1.09411">
        <ele>14.77</ele>
        <time>2015-10-31T13:40:24Z</time>
      </trkpt>
      <trkpt lat="44.46444" lon="-1.09401">
        <ele>15.11</ele>
        <time>2015-10-31T13:40:27Z</time>
      </trkpt>
      <trkpt lat="44.46513" lon="-1.09362">
        <ele>14.93</ele>
        <time>2015-10-31T13:40:40Z</time>
      </trkpt>
      <trkpt lat="44.4657" lon="-1.09331">
        <ele>14.41</ele>
        <time>2015-10-31T13:40:51Z</time>
      </trkpt>
      <trkpt lat="44.46583" lon="-1.09325">
        <ele>14.47</ele>
        <time>2015-10-31T13:40:56Z</time>
      </trkpt>
      <trkpt lat="44.46588" lon="-1.09354">
        <ele>14.46</ele>
        <time>2015-10-31T13:41:04Z</time>
      </trkpt>
      <trkpt lat="44.4659" lon="-1.09367">
        <ele>14.38</ele>
        <time>2015-10-31T13:41:06Z</time>
      </trkpt>
      <trkpt lat="44.46599" lon="-1.09424">
        <ele>14.64</ele>
        <time>2015-10-31T13:41:16Z</time>
      </trkpt>
      <trkpt lat="44.466" lon="-1.09433">
        <ele>14.35</ele>
        <time>2015-10-31T13:41:18Z</time>
      </trkpt>
      <trkpt lat="44.46612" lon="-1.09467">
        <ele>13.95</ele>
        <time>2015-10-31T13:41:24Z</time>
      </trkpt>
      <trkpt lat="44.46633" lon="-1.09503">
        <ele>14.28</ele>
        <time>2015-10-31T13:41:30Z</time>
      </trkpt>
      <trkpt lat="44.46641" lon="-1.09542">
        <ele>14.43</ele>
        <time>2015-10-31T13:41:37Z</time>
      </trkpt>
      <trkpt lat="44.46658" lon="-1.0955">
        <ele>14</ele>
        <time>2015-10-31T13:41:42Z</time>
      </trkpt>
      <trkpt lat="44.46686" lon="-1.09544">
        <ele>13.73</ele>
        <time>2015-10-31T13:41:47Z</time>
      </trkpt>
      <trkpt lat="44.46715" lon="-1.09539">
        <ele>14.15</ele>
        <time>2015-10-31T13:41:52Z</time>
      </trkpt>
      <trkpt lat="44.46741" lon="-1.09531">
        <ele>13.84</ele>
        <time>2015-10-31T13:41:56Z</time>
      </trkpt>
      <trkpt lat="44.46776" lon="-1.09521">
        <ele>13.16</ele>
        <time>2015-10-31T13:42:01Z</time>
      </trkpt>
      <trkpt lat="44.46833" lon="-1.09507">
        <ele>12.61</ele>
        <time>2015-10-31T13:42:09Z</time>
      </trkpt>
      <trkpt lat="44.46846" lon="-1.095">
        <ele>13.33</ele>
        <time>2015-10-31T13:42:11Z</time>
      </trkpt>
      <trkpt lat="44.46874" lon="-1.09496">
        <ele>13.07</ele>
        <time>2015-10-31T13:42:15Z</time>
      </trkpt>
      <trkpt lat="44.46902" lon="-1.09519">
        <ele>13.27</ele>
        <time>2015-10-31T13:42:20Z</time>
      </trkpt>
      <trkpt lat="44.4693" lon="-1.09557">
        <ele>13.05</ele>
        <time>2015-10-31T13:42:26Z</time>
      </trkpt>
      <trkpt lat="44.46976" lon="-1.09605">
        <ele>12.77</ele>
        <time>2015-10-31T13:42:38Z</time>
      </trkpt>
      <trkpt lat="44.46979" lon="-1.09604">
        <ele>12.48</ele>
        <time>2015-10-31T13:42:39Z</time>
      </trkpt>
      <trkpt lat="44.4703" lon="-1.09577">
        <ele>12.54</ele>
        <time>2015-10-31T13:42:49Z</time>
      </trkpt>
      <trkpt lat="44.47048" lon="-1.09564">
        <ele>12.63</ele>
        <time>2015-10-31T13:42:52Z</time>
      </trkpt>
      <trkpt lat="44.47102" lon="-1.09543">
        <ele>13.19</ele>
        <time>2015-10-31T13:43:00Z</time>
      </trkpt>
      <trkpt lat="44.47155" lon="-1.09533">
        <ele>13.23</ele>
        <time>2015-10-31T13:43:08Z</time>
      </trkpt>
      <trkpt lat="44.47197" lon="-1.09507">
        <ele>12.76</ele>
        <time>2015-10-31T13:43:15Z</time>
      </trkpt>
      <trkpt lat="44.47251" lon="-1.0951">
        <ele>11.9</ele>
        <time>2015-10-31T13:43:23Z</time>
      </trkpt>
      <trkpt lat="44.47286" lon="-1.09503">
        <ele>11.5</ele>
        <time>2015-10-31T13:43:28Z</time>
      </trkpt>
      <trkpt lat="44.47317" lon="-1.09484">
        <ele>11.96</ele>
        <time>2015-10-31T13:43:33Z</time>
      </trkpt>
      <trkpt lat="44.47336" lon="-1.09474">
        <ele>11.79</ele>
        <time>2015-10-31T13:43:36Z</time>
      </trkpt>
      <trkpt lat="44.47401" lon="-1.09465">
        <ele>11.25</ele>
        <time>2015-10-31T13:43:46Z</time>
      </trkpt>
      <trkpt lat="44.47425" lon="-1.09453">
        <ele>10.96</ele>
        <time>2015-10-31T13:43:51Z</time>
      </trkpt>
      <trkpt lat="44.47434" lon="-1.09464">
        <ele>11.59</ele>
        <time>2015-10-31T13:43:58Z</time>
      </trkpt>
      <trkpt lat="44.47424" lon="-1.09479">
        <ele>11.15</ele>
        <time>2015-10-31T13:44:01Z</time>
      </trkpt>
      <trkpt lat="44.4741" lon="-1.09504">
        <ele>10.81</ele>
        <time>2015-10-31T13:44:06Z</time>
      </trkpt>
      <trkpt lat="44.47407" lon="-1.09506">
        <ele>11.09</ele>
        <time>2015-10-31T13:44:10Z</time>
      </trkpt>
      <trkpt lat="44.47415" lon="-1.09492">
        <ele>11.32</ele>
        <time>2015-10-31T13:44:15Z</time>
      </trkpt>
      <trkpt lat="44.47461" lon="-1.09416">
        <ele>10.65</ele>
        <time>2015-10-31T13:44:27Z</time>
      </trkpt>
      <trkpt lat="44.47491" lon="-1.09349">
        <ele>10.53</ele>
        <time>2015-10-31T13:44:35Z</time>
      </trkpt>
      <trkpt lat="44.47508" lon="-1.09321">
        <ele>10.54</ele>
        <time>2015-10-31T13:44:39Z</time>
      </trkpt>
      <trkpt lat="44.47536" lon="-1.09302">
        <ele>11.34</ele>
        <time>2015-10-31T13:44:44Z</time>
      </trkpt>
      <trkpt lat="44.4756" lon="-1.09284">
        <ele>11.22</ele>
        <time>2015-10-31T13:44:48Z</time>
      </trkpt>
      <trkpt lat="44.47633" lon="-1.09188">
        <ele>11.19</ele>
        <time>2015-10-31T13:45:01Z</time>
      </trkpt>
      <trkpt lat="44.47671" lon="-1.09143">
        <ele>11.3</ele>
        <time>2015-10-31T13:45:08Z</time>
      </trkpt>
      <trkpt lat="44.47686" lon="-1.09151">
        <ele>10.79</ele>
        <time>2015-10-31T13:45:14Z</time>
      </trkpt>
      <trkpt lat="44.47691" lon="-1.09162">
        <ele>11.09</ele>
        <time>2015-10-31T13:45:16Z</time>
      </trkpt>
      <trkpt lat="44.47694" lon="-1.09203">
        <ele>10.83</ele>
        <time>2015-10-31T13:45:21Z</time>
      </trkpt>
      <trkpt lat="44.4772" lon="-1.09256">
        <ele>10.97</ele>
        <time>2015-10-31T13:45:28Z</time>
      </trkpt>
      <trkpt lat="44.47787" lon="-1.09301">
        <ele>8.98</ele>
        <time>2015-10-31T13:45:37Z</time>
      </trkpt>
      <trkpt lat="44.4781" lon="-1.09309">
        <ele>8.92</ele>
        <time>2015-10-31T13:45:40Z</time>
      </trkpt>
      <trkpt lat="44.47829" lon="-1.09322">
        <ele>10.23</ele>
        <time>2015-10-31T13:45:43Z</time>
      </trkpt>
      <trkpt lat="44.47834" lon="-1.09328">
        <ele>9.9</ele>
        <time>2015-10-31T13:45:44Z</time>
      </trkpt>
      <trkpt lat="44.47857" lon="-1.09363">
        <ele>9.92</ele>
        <time>2015-10-31T13:45:49Z</time>
      </trkpt>
      <trkpt lat="44.47872" lon="-1.09383">
        <ele>9.89</ele>
        <time>2015-10-31T13:45:55Z</time>
      </trkpt>
      <trkpt lat="44.47878" lon="-1.09398">
        <ele>9.9</ele>
        <time>2015-10-31T13:46:00Z</time>
      </trkpt>
      <trkpt lat="44.4791" lon="-1.09477">
        <ele>10.15</ele>
        <time>2015-10-31T13:46:10Z</time>
      </trkpt>
      <trkpt lat="44.47925" lon="-1.09576">
        <ele>9.97</ele>
        <time>2015-10-31T13:46:20Z</time>
      </trkpt>
      <trkpt lat="44.47954" lon="-1.09719">
        <ele>9.99</ele>
        <time>2015-10-31T13:46:34Z</time>
      </trkpt>
      <trkpt lat="44.47986" lon="-1.09868">
        <ele>9.15</ele>
        <time>2015-10-31T13:46:47Z</time>
      </trkpt>
      <trkpt lat="44.47993" lon="-1.09902">
        <ele>9.03</ele>
        <time>2015-10-31T13:46:50Z</time>
      </trkpt>
      <trkpt lat="44.48014" lon="-1.09962">
        <ele>8.99</ele>
        <time>2015-10-31T13:46:56Z</time>
      </trkpt>
      <trkpt lat="44.48014" lon="-1.10023">
        <ele>9.41</ele>
        <time>2015-10-31T13:47:02Z</time>
      </trkpt>
      <trkpt lat="44.48015" lon="-1.10042">
        <ele>8.99</ele>
        <time>2015-10-31T13:47:11Z</time>
      </trkpt>
      <trkpt lat="44.48019" lon="-1.10054">
        <ele>9.23</ele>
        <time>2015-10-31T13:47:17Z</time>
      </trkpt>
      <trkpt lat="44.48022" lon="-1.10057">
        <ele>9.52</ele>
        <time>2015-10-31T13:47:35Z</time>
      </trkpt>
      <trkpt lat="44.48023" lon="-1.10056">
        <ele>9.48</ele>
        <time>2015-10-31T13:48:01Z</time>
      </trkpt>
      <trkpt lat="44.48024" lon="-1.10052">
        <ele>9.42</ele>
        <time>2015-10-31T13:48:32Z</time>
      </trkpt>
      <trkpt lat="44.48023" lon="-1.10055">
        <ele>9.85</ele>
        <time>2015-10-31T13:49:00Z</time>
      </trkpt>
      <trkpt lat="44.48026" lon="-1.10055">
        <ele>9.83</ele>
        <time>2015-10-31T13:49:30Z</time>
      </trkpt>
      <trkpt lat="44.48025" lon="-1.10052">
        <ele>9.83</ele>
        <time>2015-10-31T13:49:57Z</time>
      </trkpt>
      <trkpt lat="44.48024" lon="-1.10053">
        <ele>9.78</ele>
        <time>2015-10-31T13:50:28Z</time>
      </trkpt>
      <trkpt lat="44.48021" lon="-1.10052">
        <ele>9.79</ele>
        <time>2015-10-31T13:50:56Z</time>
      </trkpt>
      <trkpt lat="44.48023" lon="-1.10053">
        <ele>9.55</ele>
        <time>2015-10-31T13:51:20Z</time>
      </trkpt>
      <trkpt lat="44.48022" lon="-1.10057">
        <ele>9.13</ele>
        <time>2015-10-31T13:51:56Z</time>
      </trkpt>
      <trkpt lat="44.48023" lon="-1.10057">
        <ele>9.79</ele>
        <time>2015-10-31T13:52:24Z</time>
      </trkpt>
      <trkpt lat="44.48021" lon="-1.10054">
        <ele>9.8</ele>
        <time>2015-10-31T13:52:55Z</time>
      </trkpt>
      <trkpt lat="44.48024" lon="-1.10055">
        <ele>9.7</ele>
        <time>2015-10-31T13:53:25Z</time>
      </trkpt>
      <trkpt lat="44.48024" lon="-1.10053">
        <ele>9.77</ele>
        <time>2015-10-31T13:53:45Z</time>
      </trkpt>
      <trkpt lat="44.48022" lon="-1.10059">
        <ele>9.75</ele>
        <time>2015-10-31T13:54:17Z</time>
      </trkpt>
      <trkpt lat="44.48023" lon="-1.10051">
        <ele>9.64</ele>
        <time>2015-10-31T13:54:51Z</time>
      </trkpt>
      <trkpt lat="44.48023" lon="-1.1006">
        <ele>9.8</ele>
        <time>2015-10-31T13:55:23Z</time>
      </trkpt>
      <trkpt lat="44.48023" lon="-1.10059">
        <ele>9.73</ele>
        <time>2015-10-31T13:55:53Z</time>
      </trkpt>
      <trkpt lat="44.48022" lon="-1.10054">
        <ele>9.64</ele>
        <time>2015-10-31T13:56:20Z</time>
      </trkpt>
      <trkpt lat="44.48022" lon="-1.10055">
        <ele>9.22</ele>
        <time>2015-10-31T13:56:48Z</time>
      </trkpt>
      <trkpt lat="44.48021" lon="-1.10057">
        <ele>9.53</ele>
        <time>2015-10-31T13:57:06Z</time>
      </trkpt>
    </trkseg>
  </trk>
</gpx>